<?xml version="1.0" encoding="UTF-8" standalone="no" ?>
<gpx xmlns="http://www.topografix.com/GPX/1/1" xmlns:xsi="http://www.w3.org/2001/XMLSchema-instance" xsi:schemaLocation="http://www.topografix.com/GPX/1/1 http://www.topografix.com/GPX/1/1/gpx.xsd" version="1.1" creator="VisuGPX - https://www.visugpx.com">
  <metadata>
    <name>randonnée noyer pont maugis</name>
    <desc><![CDATA[belle marche avec beaucoup de fraîcheur ]]></desc>
  </metadata>
  <trk>
    <name><![CDATA[Tracé actuel: 10 AOU 2018 08:03]]></name>
    <trkseg>
      <trkpt lat="49.63454" lon="4.98029">
        <ele>176.54</ele>
        <time>2018-08-10T06:03:13Z</time>
      </trkpt>
      <trkpt lat="49.63453" lon="4.98031">
        <ele>177.02</ele>
        <time>2018-08-10T06:03:35Z</time>
      </trkpt>
      <trkpt lat="49.63451" lon="4.98032">
        <ele>177.02</ele>
        <time>2018-08-10T06:03:38Z</time>
      </trkpt>
      <trkpt lat="49.63446" lon="4.98033">
        <ele>177.02</ele>
        <time>2018-08-10T06:03:42Z</time>
      </trkpt>
      <trkpt lat="49.63416" lon="4.98083">
        <ele>176.54</ele>
        <time>2018-08-10T06:05:00Z</time>
      </trkpt>
      <trkpt lat="49.63441" lon="4.98037">
        <ele>170.29</ele>
        <time>2018-08-10T06:05:17Z</time>
      </trkpt>
      <trkpt lat="49.63429" lon="4.98028">
        <ele>177.5</ele>
        <time>2018-08-10T06:05:33Z</time>
      </trkpt>
      <trkpt lat="49.63412" lon="4.98017">
        <ele>181.35</ele>
        <time>2018-08-10T06:05:51Z</time>
      </trkpt>
      <trkpt lat="49.63403" lon="4.97999">
        <ele>184.23</ele>
        <time>2018-08-10T06:06:05Z</time>
      </trkpt>
      <trkpt lat="49.63397" lon="4.97983">
        <ele>181.83</ele>
        <time>2018-08-10T06:06:19Z</time>
      </trkpt>
      <trkpt lat="49.63387" lon="4.97957">
        <ele>177.02</ele>
        <time>2018-08-10T06:06:37Z</time>
      </trkpt>
      <trkpt lat="49.63391" lon="4.97936">
        <ele>174.14</ele>
        <time>2018-08-10T06:06:49Z</time>
      </trkpt>
      <trkpt lat="49.63402" lon="4.97923">
        <ele>171.73</ele>
        <time>2018-08-10T06:07:04Z</time>
      </trkpt>
      <trkpt lat="49.63418" lon="4.9791">
        <ele>169.81</ele>
        <time>2018-08-10T06:07:23Z</time>
      </trkpt>
      <trkpt lat="49.63423" lon="4.97906">
        <ele>169.33</ele>
        <time>2018-08-10T06:07:30Z</time>
      </trkpt>
      <trkpt lat="49.63444" lon="4.97899">
        <ele>169.33</ele>
        <time>2018-08-10T06:07:50Z</time>
      </trkpt>
      <trkpt lat="49.63456" lon="4.97886">
        <ele>167.89</ele>
        <time>2018-08-10T06:08:03Z</time>
      </trkpt>
      <trkpt lat="49.63469" lon="4.97869">
        <ele>166.45</ele>
        <time>2018-08-10T06:08:20Z</time>
      </trkpt>
      <trkpt lat="49.63483" lon="4.97847">
        <ele>162.6</ele>
        <time>2018-08-10T06:08:39Z</time>
      </trkpt>
      <trkpt lat="49.63492" lon="4.97831">
        <ele>160.2</ele>
        <time>2018-08-10T06:08:53Z</time>
      </trkpt>
      <trkpt lat="49.63492" lon="4.97828">
        <ele>159.72</ele>
        <time>2018-08-10T06:09:08Z</time>
      </trkpt>
      <trkpt lat="49.63504" lon="4.97818">
        <ele>158.27</ele>
        <time>2018-08-10T06:09:22Z</time>
      </trkpt>
      <trkpt lat="49.63511" lon="4.97811">
        <ele>157.31</ele>
        <time>2018-08-10T06:09:30Z</time>
      </trkpt>
      <trkpt lat="49.6353" lon="4.97791">
        <ele>157.79</ele>
        <time>2018-08-10T06:09:49Z</time>
      </trkpt>
      <trkpt lat="49.63544" lon="4.97768">
        <ele>157.79</ele>
        <time>2018-08-10T06:10:05Z</time>
      </trkpt>
      <trkpt lat="49.63554" lon="4.97747">
        <ele>155.87</ele>
        <time>2018-08-10T06:10:22Z</time>
      </trkpt>
      <trkpt lat="49.63556" lon="4.97738">
        <ele>155.87</ele>
        <time>2018-08-10T06:10:28Z</time>
      </trkpt>
      <trkpt lat="49.63565" lon="4.97715">
        <ele>155.87</ele>
        <time>2018-08-10T06:10:42Z</time>
      </trkpt>
      <trkpt lat="49.63575" lon="4.97697">
        <ele>157.31</ele>
        <time>2018-08-10T06:10:57Z</time>
      </trkpt>
      <trkpt lat="49.63578" lon="4.97692">
        <ele>158.27</ele>
        <time>2018-08-10T06:11:02Z</time>
      </trkpt>
      <trkpt lat="49.63583" lon="4.97683">
        <ele>158.75</ele>
        <time>2018-08-10T06:11:09Z</time>
      </trkpt>
      <trkpt lat="49.636" lon="4.97673">
        <ele>164.04</ele>
        <time>2018-08-10T06:11:27Z</time>
      </trkpt>
      <trkpt lat="49.63608" lon="4.97671">
        <ele>166.93</ele>
        <time>2018-08-10T06:11:35Z</time>
      </trkpt>
      <trkpt lat="49.63618" lon="4.97673">
        <ele>168.85</ele>
        <time>2018-08-10T06:11:45Z</time>
      </trkpt>
      <trkpt lat="49.63622" lon="4.97677">
        <ele>169.33</ele>
        <time>2018-08-10T06:11:49Z</time>
      </trkpt>
      <trkpt lat="49.63641" lon="4.97689">
        <ele>168.85</ele>
        <time>2018-08-10T06:12:06Z</time>
      </trkpt>
      <trkpt lat="49.6366" lon="4.97702">
        <ele>166.45</ele>
        <time>2018-08-10T06:12:25Z</time>
      </trkpt>
      <trkpt lat="49.63677" lon="4.97718">
        <ele>164.04</ele>
        <time>2018-08-10T06:12:45Z</time>
      </trkpt>
      <trkpt lat="49.63693" lon="4.97729">
        <ele>163.56</ele>
        <time>2018-08-10T06:13:00Z</time>
      </trkpt>
      <trkpt lat="49.63695" lon="4.97733">
        <ele>163.56</ele>
        <time>2018-08-10T06:13:04Z</time>
      </trkpt>
      <trkpt lat="49.63712" lon="4.97746">
        <ele>164.04</ele>
        <time>2018-08-10T06:13:21Z</time>
      </trkpt>
      <trkpt lat="49.6372" lon="4.97754">
        <ele>162.6</ele>
        <time>2018-08-10T06:13:30Z</time>
      </trkpt>
      <trkpt lat="49.63737" lon="4.9777">
        <ele>160.68</ele>
        <time>2018-08-10T06:13:50Z</time>
      </trkpt>
      <trkpt lat="49.63754" lon="4.97782">
        <ele>161.16</ele>
        <time>2018-08-10T06:14:07Z</time>
      </trkpt>
      <trkpt lat="49.63766" lon="4.97795">
        <ele>160.2</ele>
        <time>2018-08-10T06:14:21Z</time>
      </trkpt>
      <trkpt lat="49.63775" lon="4.97807">
        <ele>160.68</ele>
        <time>2018-08-10T06:14:35Z</time>
      </trkpt>
      <trkpt lat="49.63789" lon="4.97821">
        <ele>164.04</ele>
        <time>2018-08-10T06:14:54Z</time>
      </trkpt>
      <trkpt lat="49.63795" lon="4.97824">
        <ele>165</ele>
        <time>2018-08-10T06:15:00Z</time>
      </trkpt>
      <trkpt lat="49.63814" lon="4.97842">
        <ele>167.89</ele>
        <time>2018-08-10T06:15:19Z</time>
      </trkpt>
      <trkpt lat="49.63832" lon="4.97858">
        <ele>166.93</ele>
        <time>2018-08-10T06:15:38Z</time>
      </trkpt>
      <trkpt lat="49.63849" lon="4.97874">
        <ele>164.52</ele>
        <time>2018-08-10T06:15:57Z</time>
      </trkpt>
      <trkpt lat="49.63867" lon="4.97895">
        <ele>160.68</ele>
        <time>2018-08-10T06:16:17Z</time>
      </trkpt>
      <trkpt lat="49.63883" lon="4.97912">
        <ele>156.35</ele>
        <time>2018-08-10T06:16:34Z</time>
      </trkpt>
      <trkpt lat="49.63905" lon="4.97929">
        <ele>153.47</ele>
        <time>2018-08-10T06:16:53Z</time>
      </trkpt>
      <trkpt lat="49.63912" lon="4.97936">
        <ele>154.91</ele>
        <time>2018-08-10T06:17:00Z</time>
      </trkpt>
      <trkpt lat="49.63931" lon="4.97948">
        <ele>156.83</ele>
        <time>2018-08-10T06:17:12Z</time>
      </trkpt>
      <trkpt lat="49.63947" lon="4.9796">
        <ele>156.83</ele>
        <time>2018-08-10T06:17:30Z</time>
      </trkpt>
      <trkpt lat="49.63965" lon="4.97975">
        <ele>156.83</ele>
        <time>2018-08-10T06:17:47Z</time>
      </trkpt>
      <trkpt lat="49.63981" lon="4.97989">
        <ele>157.79</ele>
        <time>2018-08-10T06:18:04Z</time>
      </trkpt>
      <trkpt lat="49.63998" lon="4.98006">
        <ele>158.75</ele>
        <time>2018-08-10T06:18:23Z</time>
      </trkpt>
      <trkpt lat="49.64016" lon="4.98025">
        <ele>159.72</ele>
        <time>2018-08-10T06:18:43Z</time>
      </trkpt>
      <trkpt lat="49.64031" lon="4.98041">
        <ele>159.72</ele>
        <time>2018-08-10T06:18:59Z</time>
      </trkpt>
      <trkpt lat="49.64048" lon="4.98052">
        <ele>159.24</ele>
        <time>2018-08-10T06:19:14Z</time>
      </trkpt>
      <trkpt lat="49.64064" lon="4.98072">
        <ele>159.24</ele>
        <time>2018-08-10T06:19:33Z</time>
      </trkpt>
      <trkpt lat="49.64078" lon="4.98086">
        <ele>160.2</ele>
        <time>2018-08-10T06:19:48Z</time>
      </trkpt>
      <trkpt lat="49.64095" lon="4.98099">
        <ele>160.68</ele>
        <time>2018-08-10T06:20:05Z</time>
      </trkpt>
      <trkpt lat="49.64112" lon="4.98113">
        <ele>159.72</ele>
        <time>2018-08-10T06:20:22Z</time>
      </trkpt>
      <trkpt lat="49.64128" lon="4.9813">
        <ele>157.31</ele>
        <time>2018-08-10T06:20:38Z</time>
      </trkpt>
      <trkpt lat="49.64144" lon="4.9815">
        <ele>158.75</ele>
        <time>2018-08-10T06:20:55Z</time>
      </trkpt>
      <trkpt lat="49.6416" lon="4.98165">
        <ele>159.72</ele>
        <time>2018-08-10T06:21:11Z</time>
      </trkpt>
      <trkpt lat="49.6417" lon="4.98175">
        <ele>159.72</ele>
        <time>2018-08-10T06:21:21Z</time>
      </trkpt>
      <trkpt lat="49.64175" lon="4.9818">
        <ele>159.72</ele>
        <time>2018-08-10T06:21:25Z</time>
      </trkpt>
      <trkpt lat="49.64192" lon="4.98193">
        <ele>159.72</ele>
        <time>2018-08-10T06:21:44Z</time>
      </trkpt>
      <trkpt lat="49.64212" lon="4.9821">
        <ele>160.68</ele>
        <time>2018-08-10T06:22:02Z</time>
      </trkpt>
      <trkpt lat="49.64231" lon="4.98226">
        <ele>162.6</ele>
        <time>2018-08-10T06:22:20Z</time>
      </trkpt>
      <trkpt lat="49.64247" lon="4.98243">
        <ele>163.56</ele>
        <time>2018-08-10T06:22:38Z</time>
      </trkpt>
      <trkpt lat="49.64265" lon="4.98259">
        <ele>165.48</ele>
        <time>2018-08-10T06:22:56Z</time>
      </trkpt>
      <trkpt lat="49.64281" lon="4.98276">
        <ele>166.45</ele>
        <time>2018-08-10T06:23:13Z</time>
      </trkpt>
      <trkpt lat="49.64294" lon="4.98289">
        <ele>166.45</ele>
        <time>2018-08-10T06:23:28Z</time>
      </trkpt>
      <trkpt lat="49.64312" lon="4.98305">
        <ele>163.08</ele>
        <time>2018-08-10T06:23:46Z</time>
      </trkpt>
      <trkpt lat="49.6433" lon="4.98318">
        <ele>164.52</ele>
        <time>2018-08-10T06:24:05Z</time>
      </trkpt>
      <trkpt lat="49.64349" lon="4.98335">
        <ele>164.04</ele>
        <time>2018-08-10T06:24:23Z</time>
      </trkpt>
      <trkpt lat="49.64367" lon="4.98345">
        <ele>161.64</ele>
        <time>2018-08-10T06:24:37Z</time>
      </trkpt>
      <trkpt lat="49.64368" lon="4.98346">
        <ele>161.64</ele>
        <time>2018-08-10T06:24:43Z</time>
      </trkpt>
      <trkpt lat="49.6437" lon="4.98348">
        <ele>161.16</ele>
        <time>2018-08-10T06:24:45Z</time>
      </trkpt>
      <trkpt lat="49.64388" lon="4.98361">
        <ele>157.79</ele>
        <time>2018-08-10T06:25:01Z</time>
      </trkpt>
      <trkpt lat="49.64405" lon="4.98377">
        <ele>156.35</ele>
        <time>2018-08-10T06:25:19Z</time>
      </trkpt>
      <trkpt lat="49.64417" lon="4.98385">
        <ele>156.35</ele>
        <time>2018-08-10T06:25:31Z</time>
      </trkpt>
      <trkpt lat="49.64427" lon="4.98389">
        <ele>155.39</ele>
        <time>2018-08-10T06:25:39Z</time>
      </trkpt>
      <trkpt lat="49.64433" lon="4.98391">
        <ele>156.83</ele>
        <time>2018-08-10T06:25:43Z</time>
      </trkpt>
      <trkpt lat="49.64449" lon="4.98406">
        <ele>159.72</ele>
        <time>2018-08-10T06:26:01Z</time>
      </trkpt>
      <trkpt lat="49.6445" lon="4.98406">
        <ele>159.72</ele>
        <time>2018-08-10T06:26:02Z</time>
      </trkpt>
      <trkpt lat="49.64458" lon="4.98411">
        <ele>159.72</ele>
        <time>2018-08-10T06:26:09Z</time>
      </trkpt>
      <trkpt lat="49.64474" lon="4.98423">
        <ele>160.68</ele>
        <time>2018-08-10T06:26:27Z</time>
      </trkpt>
      <trkpt lat="49.64489" lon="4.98436">
        <ele>161.64</ele>
        <time>2018-08-10T06:26:41Z</time>
      </trkpt>
      <trkpt lat="49.64506" lon="4.98446">
        <ele>163.08</ele>
        <time>2018-08-10T06:26:59Z</time>
      </trkpt>
      <trkpt lat="49.64529" lon="4.98459">
        <ele>162.6</ele>
        <time>2018-08-10T06:27:18Z</time>
      </trkpt>
      <trkpt lat="49.64536" lon="4.98463">
        <ele>163.08</ele>
        <time>2018-08-10T06:27:25Z</time>
      </trkpt>
      <trkpt lat="49.64542" lon="4.98467">
        <ele>163.08</ele>
        <time>2018-08-10T06:27:30Z</time>
      </trkpt>
      <trkpt lat="49.64548" lon="4.98469">
        <ele>162.6</ele>
        <time>2018-08-10T06:27:34Z</time>
      </trkpt>
      <trkpt lat="49.64569" lon="4.98478">
        <ele>162.12</ele>
        <time>2018-08-10T06:27:52Z</time>
      </trkpt>
      <trkpt lat="49.64587" lon="4.98488">
        <ele>162.12</ele>
        <time>2018-08-10T06:28:08Z</time>
      </trkpt>
      <trkpt lat="49.64608" lon="4.98495">
        <ele>162.12</ele>
        <time>2018-08-10T06:28:26Z</time>
      </trkpt>
      <trkpt lat="49.64624" lon="4.98504">
        <ele>160.2</ele>
        <time>2018-08-10T06:28:43Z</time>
      </trkpt>
      <trkpt lat="49.64645" lon="4.98515">
        <ele>161.16</ele>
        <time>2018-08-10T06:29:03Z</time>
      </trkpt>
      <trkpt lat="49.64665" lon="4.98527">
        <ele>160.2</ele>
        <time>2018-08-10T06:29:21Z</time>
      </trkpt>
      <trkpt lat="49.6468" lon="4.98539">
        <ele>159.72</ele>
        <time>2018-08-10T06:29:36Z</time>
      </trkpt>
      <trkpt lat="49.64699" lon="4.98546">
        <ele>158.27</ele>
        <time>2018-08-10T06:29:53Z</time>
      </trkpt>
      <trkpt lat="49.64716" lon="4.98559">
        <ele>159.24</ele>
        <time>2018-08-10T06:30:10Z</time>
      </trkpt>
      <trkpt lat="49.64735" lon="4.98572">
        <ele>160.2</ele>
        <time>2018-08-10T06:30:27Z</time>
      </trkpt>
      <trkpt lat="49.64752" lon="4.98579">
        <ele>160.2</ele>
        <time>2018-08-10T06:30:42Z</time>
      </trkpt>
      <trkpt lat="49.64769" lon="4.98587">
        <ele>160.2</ele>
        <time>2018-08-10T06:31:01Z</time>
      </trkpt>
      <trkpt lat="49.64777" lon="4.98595">
        <ele>161.64</ele>
        <time>2018-08-10T06:31:15Z</time>
      </trkpt>
      <trkpt lat="49.64801" lon="4.98609">
        <ele>163.08</ele>
        <time>2018-08-10T06:31:36Z</time>
      </trkpt>
      <trkpt lat="49.64821" lon="4.9862">
        <ele>161.16</ele>
        <time>2018-08-10T06:31:55Z</time>
      </trkpt>
      <trkpt lat="49.64839" lon="4.9863">
        <ele>161.16</ele>
        <time>2018-08-10T06:32:11Z</time>
      </trkpt>
      <trkpt lat="49.64857" lon="4.98642">
        <ele>160.68</ele>
        <time>2018-08-10T06:32:29Z</time>
      </trkpt>
      <trkpt lat="49.64877" lon="4.98657">
        <ele>160.68</ele>
        <time>2018-08-10T06:32:48Z</time>
      </trkpt>
      <trkpt lat="49.64897" lon="4.98668">
        <ele>159.72</ele>
        <time>2018-08-10T06:33:05Z</time>
      </trkpt>
      <trkpt lat="49.64914" lon="4.98675">
        <ele>158.27</ele>
        <time>2018-08-10T06:33:22Z</time>
      </trkpt>
      <trkpt lat="49.64934" lon="4.98684">
        <ele>157.79</ele>
        <time>2018-08-10T06:33:40Z</time>
      </trkpt>
      <trkpt lat="49.64954" lon="4.98701">
        <ele>155.39</ele>
        <time>2018-08-10T06:34:00Z</time>
      </trkpt>
      <trkpt lat="49.64976" lon="4.98721">
        <ele>156.35</ele>
        <time>2018-08-10T06:34:21Z</time>
      </trkpt>
      <trkpt lat="49.64994" lon="4.98736">
        <ele>156.83</ele>
        <time>2018-08-10T06:34:40Z</time>
      </trkpt>
      <trkpt lat="49.65014" lon="4.98753">
        <ele>155.87</ele>
        <time>2018-08-10T06:34:57Z</time>
      </trkpt>
      <trkpt lat="49.65033" lon="4.98771">
        <ele>154.91</ele>
        <time>2018-08-10T06:35:16Z</time>
      </trkpt>
      <trkpt lat="49.65051" lon="4.98787">
        <ele>155.39</ele>
        <time>2018-08-10T06:35:35Z</time>
      </trkpt>
      <trkpt lat="49.65069" lon="4.98805">
        <ele>155.39</ele>
        <time>2018-08-10T06:35:52Z</time>
      </trkpt>
      <trkpt lat="49.65086" lon="4.98822">
        <ele>155.39</ele>
        <time>2018-08-10T06:36:11Z</time>
      </trkpt>
      <trkpt lat="49.65103" lon="4.98836">
        <ele>155.87</ele>
        <time>2018-08-10T06:36:25Z</time>
      </trkpt>
      <trkpt lat="49.6512" lon="4.98853">
        <ele>156.35</ele>
        <time>2018-08-10T06:36:44Z</time>
      </trkpt>
      <trkpt lat="49.65136" lon="4.98868">
        <ele>156.35</ele>
        <time>2018-08-10T06:37:01Z</time>
      </trkpt>
      <trkpt lat="49.65154" lon="4.98883">
        <ele>157.31</ele>
        <time>2018-08-10T06:37:17Z</time>
      </trkpt>
      <trkpt lat="49.6517" lon="4.98899">
        <ele>157.79</ele>
        <time>2018-08-10T06:37:36Z</time>
      </trkpt>
      <trkpt lat="49.65188" lon="4.98915">
        <ele>158.75</ele>
        <time>2018-08-10T06:37:54Z</time>
      </trkpt>
      <trkpt lat="49.65209" lon="4.98938">
        <ele>157.79</ele>
        <time>2018-08-10T06:38:14Z</time>
      </trkpt>
      <trkpt lat="49.65227" lon="4.98957">
        <ele>157.31</ele>
        <time>2018-08-10T06:38:35Z</time>
      </trkpt>
      <trkpt lat="49.65247" lon="4.98975">
        <ele>155.87</ele>
        <time>2018-08-10T06:38:53Z</time>
      </trkpt>
      <trkpt lat="49.65261" lon="4.98986">
        <ele>156.83</ele>
        <time>2018-08-10T06:39:12Z</time>
      </trkpt>
      <trkpt lat="49.6528" lon="4.99002">
        <ele>158.27</ele>
        <time>2018-08-10T06:39:28Z</time>
      </trkpt>
      <trkpt lat="49.65296" lon="4.99017">
        <ele>158.27</ele>
        <time>2018-08-10T06:39:46Z</time>
      </trkpt>
      <trkpt lat="49.65315" lon="4.99036">
        <ele>157.79</ele>
        <time>2018-08-10T06:40:03Z</time>
      </trkpt>
      <trkpt lat="49.65324" lon="4.99052">
        <ele>158.27</ele>
        <time>2018-08-10T06:40:18Z</time>
      </trkpt>
      <trkpt lat="49.65335" lon="4.99083">
        <ele>161.16</ele>
        <time>2018-08-10T06:40:37Z</time>
      </trkpt>
      <trkpt lat="49.65345" lon="4.99109">
        <ele>161.64</ele>
        <time>2018-08-10T06:40:56Z</time>
      </trkpt>
      <trkpt lat="49.65346" lon="4.99111">
        <ele>161.16</ele>
        <time>2018-08-10T06:40:57Z</time>
      </trkpt>
      <trkpt lat="49.65355" lon="4.99135">
        <ele>162.6</ele>
        <time>2018-08-10T06:41:12Z</time>
      </trkpt>
      <trkpt lat="49.65371" lon="4.99156">
        <ele>162.12</ele>
        <time>2018-08-10T06:41:32Z</time>
      </trkpt>
      <trkpt lat="49.65377" lon="4.99166">
        <ele>162.12</ele>
        <time>2018-08-10T06:41:40Z</time>
      </trkpt>
      <trkpt lat="49.65375" lon="4.99175">
        <ele>162.12</ele>
        <time>2018-08-10T06:41:53Z</time>
      </trkpt>
      <trkpt lat="49.65382" lon="4.99186">
        <ele>159.72</ele>
        <time>2018-08-10T06:42:05Z</time>
      </trkpt>
      <trkpt lat="49.65389" lon="4.9919">
        <ele>157.79</ele>
        <time>2018-08-10T06:42:22Z</time>
      </trkpt>
      <trkpt lat="49.65398" lon="4.992">
        <ele>157.31</ele>
        <time>2018-08-10T06:42:33Z</time>
      </trkpt>
      <trkpt lat="49.65412" lon="4.99221">
        <ele>158.27</ele>
        <time>2018-08-10T06:42:50Z</time>
      </trkpt>
      <trkpt lat="49.65415" lon="4.99224">
        <ele>158.75</ele>
        <time>2018-08-10T06:42:54Z</time>
      </trkpt>
      <trkpt lat="49.65427" lon="4.99245">
        <ele>160.68</ele>
        <time>2018-08-10T06:43:10Z</time>
      </trkpt>
      <trkpt lat="49.65441" lon="4.99267">
        <ele>160.68</ele>
        <time>2018-08-10T06:43:27Z</time>
      </trkpt>
      <trkpt lat="49.65461" lon="4.99279">
        <ele>160.2</ele>
        <time>2018-08-10T06:43:44Z</time>
      </trkpt>
      <trkpt lat="49.65473" lon="4.99264">
        <ele>158.75</ele>
        <time>2018-08-10T06:44:00Z</time>
      </trkpt>
      <trkpt lat="49.65486" lon="4.99233">
        <ele>158.27</ele>
        <time>2018-08-10T06:44:17Z</time>
      </trkpt>
      <trkpt lat="49.65491" lon="4.99209">
        <ele>157.31</ele>
        <time>2018-08-10T06:44:35Z</time>
      </trkpt>
      <trkpt lat="49.65505" lon="4.992">
        <ele>156.35</ele>
        <time>2018-08-10T06:44:50Z</time>
      </trkpt>
      <trkpt lat="49.65521" lon="4.99209">
        <ele>154.91</ele>
        <time>2018-08-10T06:45:08Z</time>
      </trkpt>
      <trkpt lat="49.65524" lon="4.99211">
        <ele>154.91</ele>
        <time>2018-08-10T06:45:11Z</time>
      </trkpt>
      <trkpt lat="49.65541" lon="4.9922">
        <ele>154.91</ele>
        <time>2018-08-10T06:45:28Z</time>
      </trkpt>
      <trkpt lat="49.65558" lon="4.99234">
        <ele>156.35</ele>
        <time>2018-08-10T06:45:43Z</time>
      </trkpt>
      <trkpt lat="49.6557" lon="4.99235">
        <ele>156.83</ele>
        <time>2018-08-10T06:45:57Z</time>
      </trkpt>
      <trkpt lat="49.65585" lon="4.99211">
        <ele>157.79</ele>
        <time>2018-08-10T06:46:14Z</time>
      </trkpt>
      <trkpt lat="49.6559" lon="4.99203">
        <ele>157.31</ele>
        <time>2018-08-10T06:46:22Z</time>
      </trkpt>
      <trkpt lat="49.65596" lon="4.99193">
        <ele>156.83</ele>
        <time>2018-08-10T06:46:29Z</time>
      </trkpt>
      <trkpt lat="49.65614" lon="4.99168">
        <ele>158.75</ele>
        <time>2018-08-10T06:46:47Z</time>
      </trkpt>
      <trkpt lat="49.65628" lon="4.99144">
        <ele>158.75</ele>
        <time>2018-08-10T06:47:07Z</time>
      </trkpt>
      <trkpt lat="49.65645" lon="4.99117">
        <ele>159.72</ele>
        <time>2018-08-10T06:47:25Z</time>
      </trkpt>
      <trkpt lat="49.6566" lon="4.99092">
        <ele>159.72</ele>
        <time>2018-08-10T06:47:44Z</time>
      </trkpt>
      <trkpt lat="49.65669" lon="4.99071">
        <ele>157.79</ele>
        <time>2018-08-10T06:48:00Z</time>
      </trkpt>
      <trkpt lat="49.65687" lon="4.99045">
        <ele>159.24</ele>
        <time>2018-08-10T06:48:21Z</time>
      </trkpt>
      <trkpt lat="49.65701" lon="4.99022">
        <ele>160.68</ele>
        <time>2018-08-10T06:48:38Z</time>
      </trkpt>
      <trkpt lat="49.65715" lon="4.98999">
        <ele>160.68</ele>
        <time>2018-08-10T06:48:57Z</time>
      </trkpt>
      <trkpt lat="49.65727" lon="4.98978">
        <ele>160.68</ele>
        <time>2018-08-10T06:49:16Z</time>
      </trkpt>
      <trkpt lat="49.65741" lon="4.98952">
        <ele>160.68</ele>
        <time>2018-08-10T06:49:35Z</time>
      </trkpt>
      <trkpt lat="49.65754" lon="4.98927">
        <ele>161.16</ele>
        <time>2018-08-10T06:49:53Z</time>
      </trkpt>
      <trkpt lat="49.65766" lon="4.98905">
        <ele>162.12</ele>
        <time>2018-08-10T06:50:10Z</time>
      </trkpt>
      <trkpt lat="49.65781" lon="4.98878">
        <ele>162.12</ele>
        <time>2018-08-10T06:50:29Z</time>
      </trkpt>
      <trkpt lat="49.65794" lon="4.98854">
        <ele>162.12</ele>
        <time>2018-08-10T06:50:46Z</time>
      </trkpt>
      <trkpt lat="49.65807" lon="4.98829">
        <ele>161.64</ele>
        <time>2018-08-10T06:51:05Z</time>
      </trkpt>
      <trkpt lat="49.65817" lon="4.98806">
        <ele>162.12</ele>
        <time>2018-08-10T06:51:21Z</time>
      </trkpt>
      <trkpt lat="49.65833" lon="4.98781">
        <ele>162.12</ele>
        <time>2018-08-10T06:51:39Z</time>
      </trkpt>
      <trkpt lat="49.65837" lon="4.98772">
        <ele>162.12</ele>
        <time>2018-08-10T06:51:46Z</time>
      </trkpt>
      <trkpt lat="49.65845" lon="4.98758">
        <ele>162.12</ele>
        <time>2018-08-10T06:51:55Z</time>
      </trkpt>
      <trkpt lat="49.65858" lon="4.98734">
        <ele>162.12</ele>
        <time>2018-08-10T06:52:14Z</time>
      </trkpt>
      <trkpt lat="49.6587" lon="4.98712">
        <ele>163.56</ele>
        <time>2018-08-10T06:52:30Z</time>
      </trkpt>
      <trkpt lat="49.65868" lon="4.98708">
        <ele>161.64</ele>
        <time>2018-08-10T06:52:43Z</time>
      </trkpt>
      <trkpt lat="49.65865" lon="4.98707">
        <ele>160.2</ele>
        <time>2018-08-10T06:53:08Z</time>
      </trkpt>
      <trkpt lat="49.65864" lon="4.98707">
        <ele>159.72</ele>
        <time>2018-08-10T06:53:30Z</time>
      </trkpt>
      <trkpt lat="49.65864" lon="4.98706">
        <ele>159.72</ele>
        <time>2018-08-10T06:53:52Z</time>
      </trkpt>
      <trkpt lat="49.65866" lon="4.98705">
        <ele>159.72</ele>
        <time>2018-08-10T06:54:15Z</time>
      </trkpt>
      <trkpt lat="49.65866" lon="4.98705">
        <ele>159.24</ele>
        <time>2018-08-10T06:54:37Z</time>
      </trkpt>
      <trkpt lat="49.65867" lon="4.98705">
        <ele>158.75</ele>
        <time>2018-08-10T06:55:07Z</time>
      </trkpt>
      <trkpt lat="49.65867" lon="4.98704">
        <ele>158.75</ele>
        <time>2018-08-10T06:55:30Z</time>
      </trkpt>
      <trkpt lat="49.65868" lon="4.98704">
        <ele>159.24</ele>
        <time>2018-08-10T06:56:02Z</time>
      </trkpt>
      <trkpt lat="49.65868" lon="4.98705">
        <ele>159.24</ele>
        <time>2018-08-10T06:56:23Z</time>
      </trkpt>
      <trkpt lat="49.65868" lon="4.98705">
        <ele>158.75</ele>
        <time>2018-08-10T06:56:50Z</time>
      </trkpt>
      <trkpt lat="49.65868" lon="4.98704">
        <ele>158.75</ele>
        <time>2018-08-10T06:57:23Z</time>
      </trkpt>
      <trkpt lat="49.65871" lon="4.98698">
        <ele>159.24</ele>
        <time>2018-08-10T06:57:51Z</time>
      </trkpt>
      <trkpt lat="49.65885" lon="4.98676">
        <ele>157.79</ele>
        <time>2018-08-10T06:58:06Z</time>
      </trkpt>
      <trkpt lat="49.65897" lon="4.98651">
        <ele>158.27</ele>
        <time>2018-08-10T06:58:26Z</time>
      </trkpt>
      <trkpt lat="49.65914" lon="4.9862">
        <ele>157.31</ele>
        <time>2018-08-10T06:58:46Z</time>
      </trkpt>
      <trkpt lat="49.65926" lon="4.98596">
        <ele>157.31</ele>
        <time>2018-08-10T06:59:06Z</time>
      </trkpt>
      <trkpt lat="49.65942" lon="4.98562">
        <ele>159.72</ele>
        <time>2018-08-10T06:59:25Z</time>
      </trkpt>
      <trkpt lat="49.65954" lon="4.98533">
        <ele>160.2</ele>
        <time>2018-08-10T06:59:44Z</time>
      </trkpt>
      <trkpt lat="49.65967" lon="4.98505">
        <ele>161.64</ele>
        <time>2018-08-10T07:00:02Z</time>
      </trkpt>
      <trkpt lat="49.65971" lon="4.98501">
        <ele>162.12</ele>
        <time>2018-08-10T07:00:07Z</time>
      </trkpt>
      <trkpt lat="49.65977" lon="4.98486">
        <ele>161.16</ele>
        <time>2018-08-10T07:00:16Z</time>
      </trkpt>
      <trkpt lat="49.65994" lon="4.9846">
        <ele>161.64</ele>
        <time>2018-08-10T07:00:37Z</time>
      </trkpt>
      <trkpt lat="49.66006" lon="4.98439">
        <ele>161.64</ele>
        <time>2018-08-10T07:00:56Z</time>
      </trkpt>
      <trkpt lat="49.66024" lon="4.98412">
        <ele>159.72</ele>
        <time>2018-08-10T07:01:14Z</time>
      </trkpt>
      <trkpt lat="49.66042" lon="4.98382">
        <ele>164.04</ele>
        <time>2018-08-10T07:01:33Z</time>
      </trkpt>
      <trkpt lat="49.66052" lon="4.98358">
        <ele>161.16</ele>
        <time>2018-08-10T07:01:53Z</time>
      </trkpt>
      <trkpt lat="49.66065" lon="4.98334">
        <ele>161.64</ele>
        <time>2018-08-10T07:02:09Z</time>
      </trkpt>
      <trkpt lat="49.66079" lon="4.98308">
        <ele>161.64</ele>
        <time>2018-08-10T07:02:26Z</time>
      </trkpt>
      <trkpt lat="49.66091" lon="4.98283">
        <ele>160.68</ele>
        <time>2018-08-10T07:02:44Z</time>
      </trkpt>
      <trkpt lat="49.66104" lon="4.98257">
        <ele>160.2</ele>
        <time>2018-08-10T07:03:03Z</time>
      </trkpt>
      <trkpt lat="49.66118" lon="4.98231">
        <ele>160.2</ele>
        <time>2018-08-10T07:03:21Z</time>
      </trkpt>
      <trkpt lat="49.66134" lon="4.98201">
        <ele>160.68</ele>
        <time>2018-08-10T07:03:42Z</time>
      </trkpt>
      <trkpt lat="49.66147" lon="4.98179">
        <ele>160.68</ele>
        <time>2018-08-10T07:03:59Z</time>
      </trkpt>
      <trkpt lat="49.6616" lon="4.98154">
        <ele>159.72</ele>
        <time>2018-08-10T07:04:18Z</time>
      </trkpt>
      <trkpt lat="49.66174" lon="4.98126">
        <ele>159.24</ele>
        <time>2018-08-10T07:04:39Z</time>
      </trkpt>
      <trkpt lat="49.66186" lon="4.981">
        <ele>158.75</ele>
        <time>2018-08-10T07:04:56Z</time>
      </trkpt>
      <trkpt lat="49.662" lon="4.98074">
        <ele>158.75</ele>
        <time>2018-08-10T07:05:13Z</time>
      </trkpt>
      <trkpt lat="49.66213" lon="4.9805">
        <ele>157.79</ele>
        <time>2018-08-10T07:05:32Z</time>
      </trkpt>
      <trkpt lat="49.66225" lon="4.98026">
        <ele>157.79</ele>
        <time>2018-08-10T07:05:47Z</time>
      </trkpt>
      <trkpt lat="49.66241" lon="4.97997">
        <ele>156.35</ele>
        <time>2018-08-10T07:06:09Z</time>
      </trkpt>
      <trkpt lat="49.66256" lon="4.97966">
        <ele>156.83</ele>
        <time>2018-08-10T07:06:31Z</time>
      </trkpt>
      <trkpt lat="49.6627" lon="4.97941">
        <ele>157.79</ele>
        <time>2018-08-10T07:06:47Z</time>
      </trkpt>
      <trkpt lat="49.66282" lon="4.97915">
        <ele>156.35</ele>
        <time>2018-08-10T07:07:07Z</time>
      </trkpt>
      <trkpt lat="49.66294" lon="4.9789">
        <ele>156.83</ele>
        <time>2018-08-10T07:07:26Z</time>
      </trkpt>
      <trkpt lat="49.66312" lon="4.97856">
        <ele>158.27</ele>
        <time>2018-08-10T07:07:48Z</time>
      </trkpt>
      <trkpt lat="49.66325" lon="4.97829">
        <ele>156.83</ele>
        <time>2018-08-10T07:08:10Z</time>
      </trkpt>
      <trkpt lat="49.66326" lon="4.97828">
        <ele>156.83</ele>
        <time>2018-08-10T07:08:11Z</time>
      </trkpt>
      <trkpt lat="49.66345" lon="4.97794">
        <ele>157.31</ele>
        <time>2018-08-10T07:08:32Z</time>
      </trkpt>
      <trkpt lat="49.66359" lon="4.97766">
        <ele>156.83</ele>
        <time>2018-08-10T07:08:53Z</time>
      </trkpt>
      <trkpt lat="49.66375" lon="4.97734">
        <ele>156.83</ele>
        <time>2018-08-10T07:09:14Z</time>
      </trkpt>
      <trkpt lat="49.66392" lon="4.97703">
        <ele>157.31</ele>
        <time>2018-08-10T07:09:35Z</time>
      </trkpt>
      <trkpt lat="49.66406" lon="4.97674">
        <ele>156.83</ele>
        <time>2018-08-10T07:09:57Z</time>
      </trkpt>
      <trkpt lat="49.66422" lon="4.97641">
        <ele>156.83</ele>
        <time>2018-08-10T07:10:20Z</time>
      </trkpt>
      <trkpt lat="49.66439" lon="4.97609">
        <ele>157.31</ele>
        <time>2018-08-10T07:10:41Z</time>
      </trkpt>
      <trkpt lat="49.66452" lon="4.97583">
        <ele>155.87</ele>
        <time>2018-08-10T07:11:02Z</time>
      </trkpt>
      <trkpt lat="49.66473" lon="4.97547">
        <ele>155.39</ele>
        <time>2018-08-10T07:11:25Z</time>
      </trkpt>
      <trkpt lat="49.66491" lon="4.97516">
        <ele>155.87</ele>
        <time>2018-08-10T07:11:46Z</time>
      </trkpt>
      <trkpt lat="49.66502" lon="4.9749">
        <ele>153.47</ele>
        <time>2018-08-10T07:12:06Z</time>
      </trkpt>
      <trkpt lat="49.66519" lon="4.97456">
        <ele>152.99</ele>
        <time>2018-08-10T07:12:28Z</time>
      </trkpt>
      <trkpt lat="49.66529" lon="4.97432">
        <ele>153.47</ele>
        <time>2018-08-10T07:12:46Z</time>
      </trkpt>
      <trkpt lat="49.66536" lon="4.97416">
        <ele>151.54</ele>
        <time>2018-08-10T07:12:56Z</time>
      </trkpt>
      <trkpt lat="49.66551" lon="4.9739">
        <ele>149.14</ele>
        <time>2018-08-10T07:13:14Z</time>
      </trkpt>
      <trkpt lat="49.66567" lon="4.97365">
        <ele>150.58</ele>
        <time>2018-08-10T07:13:33Z</time>
      </trkpt>
      <trkpt lat="49.66577" lon="4.97342">
        <ele>151.54</ele>
        <time>2018-08-10T07:13:50Z</time>
      </trkpt>
      <trkpt lat="49.66593" lon="4.97312">
        <ele>154.43</ele>
        <time>2018-08-10T07:14:09Z</time>
      </trkpt>
      <trkpt lat="49.66606" lon="4.97286">
        <ele>153.95</ele>
        <time>2018-08-10T07:14:29Z</time>
      </trkpt>
      <trkpt lat="49.66618" lon="4.97257">
        <ele>153.95</ele>
        <time>2018-08-10T07:14:49Z</time>
      </trkpt>
      <trkpt lat="49.6663" lon="4.97224">
        <ele>155.39</ele>
        <time>2018-08-10T07:15:07Z</time>
      </trkpt>
      <trkpt lat="49.66638" lon="4.97195">
        <ele>154.91</ele>
        <time>2018-08-10T07:15:26Z</time>
      </trkpt>
      <trkpt lat="49.66648" lon="4.97161">
        <ele>152.99</ele>
        <time>2018-08-10T07:15:45Z</time>
      </trkpt>
      <trkpt lat="49.66657" lon="4.97131">
        <ele>152.99</ele>
        <time>2018-08-10T07:16:04Z</time>
      </trkpt>
      <trkpt lat="49.66668" lon="4.97097">
        <ele>152.51</ele>
        <time>2018-08-10T07:16:23Z</time>
      </trkpt>
      <trkpt lat="49.66681" lon="4.97066">
        <ele>152.99</ele>
        <time>2018-08-10T07:16:44Z</time>
      </trkpt>
      <trkpt lat="49.66695" lon="4.9704">
        <ele>152.51</ele>
        <time>2018-08-10T07:17:04Z</time>
      </trkpt>
      <trkpt lat="49.66708" lon="4.97019">
        <ele>152.51</ele>
        <time>2018-08-10T07:17:21Z</time>
      </trkpt>
      <trkpt lat="49.66724" lon="4.96994">
        <ele>152.99</ele>
        <time>2018-08-10T07:17:38Z</time>
      </trkpt>
      <trkpt lat="49.66734" lon="4.9698">
        <ele>152.99</ele>
        <time>2018-08-10T07:17:51Z</time>
      </trkpt>
      <trkpt lat="49.66748" lon="4.96959">
        <ele>152.03</ele>
        <time>2018-08-10T07:18:07Z</time>
      </trkpt>
      <trkpt lat="49.66764" lon="4.96937">
        <ele>150.1</ele>
        <time>2018-08-10T07:18:25Z</time>
      </trkpt>
      <trkpt lat="49.66777" lon="4.96918">
        <ele>144.34</ele>
        <time>2018-08-10T07:18:43Z</time>
      </trkpt>
      <trkpt lat="49.66787" lon="4.96896">
        <ele>147.7</ele>
        <time>2018-08-10T07:18:59Z</time>
      </trkpt>
      <trkpt lat="49.66788" lon="4.96895">
        <ele>147.7</ele>
        <time>2018-08-10T07:19:00Z</time>
      </trkpt>
      <trkpt lat="49.66794" lon="4.96882">
        <ele>148.66</ele>
        <time>2018-08-10T07:19:08Z</time>
      </trkpt>
      <trkpt lat="49.66803" lon="4.96856">
        <ele>149.14</ele>
        <time>2018-08-10T07:19:25Z</time>
      </trkpt>
      <trkpt lat="49.66811" lon="4.96829">
        <ele>147.7</ele>
        <time>2018-08-10T07:19:42Z</time>
      </trkpt>
      <trkpt lat="49.6682" lon="4.96798">
        <ele>150.1</ele>
        <time>2018-08-10T07:20:00Z</time>
      </trkpt>
      <trkpt lat="49.66825" lon="4.96766">
        <ele>149.14</ele>
        <time>2018-08-10T07:20:17Z</time>
      </trkpt>
      <trkpt lat="49.66826" lon="4.96731">
        <ele>149.14</ele>
        <time>2018-08-10T07:20:37Z</time>
      </trkpt>
      <trkpt lat="49.66822" lon="4.96701">
        <ele>149.62</ele>
        <time>2018-08-10T07:20:53Z</time>
      </trkpt>
      <trkpt lat="49.66819" lon="4.96668">
        <ele>150.1</ele>
        <time>2018-08-10T07:21:11Z</time>
      </trkpt>
      <trkpt lat="49.66816" lon="4.96645">
        <ele>150.1</ele>
        <time>2018-08-10T07:21:26Z</time>
      </trkpt>
      <trkpt lat="49.6681" lon="4.96612">
        <ele>149.62</ele>
        <time>2018-08-10T07:21:44Z</time>
      </trkpt>
      <trkpt lat="49.66804" lon="4.96586">
        <ele>150.1</ele>
        <time>2018-08-10T07:21:58Z</time>
      </trkpt>
      <trkpt lat="49.66801" lon="4.96556">
        <ele>151.54</ele>
        <time>2018-08-10T07:22:16Z</time>
      </trkpt>
      <trkpt lat="49.66796" lon="4.96529">
        <ele>152.51</ele>
        <time>2018-08-10T07:22:31Z</time>
      </trkpt>
      <trkpt lat="49.66789" lon="4.96493">
        <ele>153.95</ele>
        <time>2018-08-10T07:22:50Z</time>
      </trkpt>
      <trkpt lat="49.66784" lon="4.96463">
        <ele>153.95</ele>
        <time>2018-08-10T07:23:08Z</time>
      </trkpt>
      <trkpt lat="49.66778" lon="4.96433">
        <ele>155.39</ele>
        <time>2018-08-10T07:23:26Z</time>
      </trkpt>
      <trkpt lat="49.66773" lon="4.96402">
        <ele>156.83</ele>
        <time>2018-08-10T07:23:44Z</time>
      </trkpt>
      <trkpt lat="49.66767" lon="4.96371">
        <ele>156.35</ele>
        <time>2018-08-10T07:24:03Z</time>
      </trkpt>
      <trkpt lat="49.66767" lon="4.96368">
        <ele>156.35</ele>
        <time>2018-08-10T07:24:05Z</time>
      </trkpt>
      <trkpt lat="49.66766" lon="4.96331">
        <ele>156.35</ele>
        <time>2018-08-10T07:24:26Z</time>
      </trkpt>
      <trkpt lat="49.66767" lon="4.96303">
        <ele>155.87</ele>
        <time>2018-08-10T07:24:42Z</time>
      </trkpt>
      <trkpt lat="49.6677" lon="4.96282">
        <ele>155.87</ele>
        <time>2018-08-10T07:24:53Z</time>
      </trkpt>
      <trkpt lat="49.66776" lon="4.96252">
        <ele>156.35</ele>
        <time>2018-08-10T07:25:11Z</time>
      </trkpt>
      <trkpt lat="49.66784" lon="4.96221">
        <ele>157.31</ele>
        <time>2018-08-10T07:25:29Z</time>
      </trkpt>
      <trkpt lat="49.66792" lon="4.96193">
        <ele>158.75</ele>
        <time>2018-08-10T07:25:47Z</time>
      </trkpt>
      <trkpt lat="49.66797" lon="4.96165">
        <ele>157.31</ele>
        <time>2018-08-10T07:26:03Z</time>
      </trkpt>
      <trkpt lat="49.66807" lon="4.96137">
        <ele>156.83</ele>
        <time>2018-08-10T07:26:20Z</time>
      </trkpt>
      <trkpt lat="49.66817" lon="4.96109">
        <ele>156.83</ele>
        <time>2018-08-10T07:26:37Z</time>
      </trkpt>
      <trkpt lat="49.66828" lon="4.96085">
        <ele>157.31</ele>
        <time>2018-08-10T07:26:54Z</time>
      </trkpt>
      <trkpt lat="49.66837" lon="4.96061">
        <ele>157.79</ele>
        <time>2018-08-10T07:27:10Z</time>
      </trkpt>
      <trkpt lat="49.66847" lon="4.96036">
        <ele>157.31</ele>
        <time>2018-08-10T07:27:26Z</time>
      </trkpt>
      <trkpt lat="49.66859" lon="4.9601">
        <ele>159.72</ele>
        <time>2018-08-10T07:27:43Z</time>
      </trkpt>
      <trkpt lat="49.66871" lon="4.95984">
        <ele>160.68</ele>
        <time>2018-08-10T07:28:01Z</time>
      </trkpt>
      <trkpt lat="49.6688" lon="4.95953">
        <ele>159.24</ele>
        <time>2018-08-10T07:28:21Z</time>
      </trkpt>
      <trkpt lat="49.66879" lon="4.95953">
        <ele>159.24</ele>
        <time>2018-08-10T07:28:22Z</time>
      </trkpt>
      <trkpt lat="49.66867" lon="4.95963">
        <ele>158.75</ele>
        <time>2018-08-10T07:28:36Z</time>
      </trkpt>
      <trkpt lat="49.66858" lon="4.95985">
        <ele>158.27</ele>
        <time>2018-08-10T07:28:51Z</time>
      </trkpt>
      <trkpt lat="49.66847" lon="4.96008">
        <ele>160.68</ele>
        <time>2018-08-10T07:29:08Z</time>
      </trkpt>
      <trkpt lat="49.66832" lon="4.96011">
        <ele>161.16</ele>
        <time>2018-08-10T07:29:22Z</time>
      </trkpt>
      <trkpt lat="49.66825" lon="4.96004">
        <ele>162.12</ele>
        <time>2018-08-10T07:29:34Z</time>
      </trkpt>
      <trkpt lat="49.66822" lon="4.95995">
        <ele>162.6</ele>
        <time>2018-08-10T07:29:40Z</time>
      </trkpt>
      <trkpt lat="49.66827" lon="4.95968">
        <ele>162.6</ele>
        <time>2018-08-10T07:29:59Z</time>
      </trkpt>
      <trkpt lat="49.66831" lon="4.95959">
        <ele>163.56</ele>
        <time>2018-08-10T07:30:05Z</time>
      </trkpt>
      <trkpt lat="49.66832" lon="4.95948">
        <ele>162.6</ele>
        <time>2018-08-10T07:30:13Z</time>
      </trkpt>
      <trkpt lat="49.66839" lon="4.95926">
        <ele>160.68</ele>
        <time>2018-08-10T07:30:26Z</time>
      </trkpt>
      <trkpt lat="49.66841" lon="4.95919">
        <ele>160.68</ele>
        <time>2018-08-10T07:30:34Z</time>
      </trkpt>
      <trkpt lat="49.66851" lon="4.95892">
        <ele>162.12</ele>
        <time>2018-08-10T07:30:50Z</time>
      </trkpt>
      <trkpt lat="49.6685" lon="4.95887">
        <ele>161.64</ele>
        <time>2018-08-10T07:30:53Z</time>
      </trkpt>
      <trkpt lat="49.6685" lon="4.95883">
        <ele>161.16</ele>
        <time>2018-08-10T07:30:55Z</time>
      </trkpt>
      <trkpt lat="49.66839" lon="4.95852">
        <ele>159.72</ele>
        <time>2018-08-10T07:31:13Z</time>
      </trkpt>
      <trkpt lat="49.66826" lon="4.95835">
        <ele>157.31</ele>
        <time>2018-08-10T07:31:28Z</time>
      </trkpt>
      <trkpt lat="49.66814" lon="4.95823">
        <ele>156.35</ele>
        <time>2018-08-10T07:31:42Z</time>
      </trkpt>
      <trkpt lat="49.6681" lon="4.95817">
        <ele>156.35</ele>
        <time>2018-08-10T07:31:46Z</time>
      </trkpt>
      <trkpt lat="49.66806" lon="4.95811">
        <ele>156.35</ele>
        <time>2018-08-10T07:31:50Z</time>
      </trkpt>
      <trkpt lat="49.66794" lon="4.95792">
        <ele>155.87</ele>
        <time>2018-08-10T07:32:06Z</time>
      </trkpt>
      <trkpt lat="49.66781" lon="4.95773">
        <ele>153.47</ele>
        <time>2018-08-10T07:32:20Z</time>
      </trkpt>
      <trkpt lat="49.66769" lon="4.95757">
        <ele>156.35</ele>
        <time>2018-08-10T07:32:35Z</time>
      </trkpt>
      <trkpt lat="49.66756" lon="4.9574">
        <ele>157.31</ele>
        <time>2018-08-10T07:32:51Z</time>
      </trkpt>
      <trkpt lat="49.66761" lon="4.95712">
        <ele>159.24</ele>
        <time>2018-08-10T07:33:07Z</time>
      </trkpt>
      <trkpt lat="49.66769" lon="4.95694">
        <ele>158.75</ele>
        <time>2018-08-10T07:33:19Z</time>
      </trkpt>
      <trkpt lat="49.66781" lon="4.95669">
        <ele>160.2</ele>
        <time>2018-08-10T07:33:37Z</time>
      </trkpt>
      <trkpt lat="49.66789" lon="4.95647">
        <ele>162.12</ele>
        <time>2018-08-10T07:33:50Z</time>
      </trkpt>
      <trkpt lat="49.66799" lon="4.95617">
        <ele>161.16</ele>
        <time>2018-08-10T07:34:09Z</time>
      </trkpt>
      <trkpt lat="49.66809" lon="4.95588">
        <ele>161.16</ele>
        <time>2018-08-10T07:34:28Z</time>
      </trkpt>
      <trkpt lat="49.66821" lon="4.95565">
        <ele>158.27</ele>
        <time>2018-08-10T07:34:45Z</time>
      </trkpt>
      <trkpt lat="49.66832" lon="4.9554">
        <ele>153.47</ele>
        <time>2018-08-10T07:35:01Z</time>
      </trkpt>
      <trkpt lat="49.66839" lon="4.95508">
        <ele>157.31</ele>
        <time>2018-08-10T07:35:19Z</time>
      </trkpt>
      <trkpt lat="49.66846" lon="4.95492">
        <ele>160.68</ele>
        <time>2018-08-10T07:35:28Z</time>
      </trkpt>
      <trkpt lat="49.66843" lon="4.95479">
        <ele>163.08</ele>
        <time>2018-08-10T07:35:38Z</time>
      </trkpt>
      <trkpt lat="49.66826" lon="4.95467">
        <ele>161.16</ele>
        <time>2018-08-10T07:35:52Z</time>
      </trkpt>
      <trkpt lat="49.66824" lon="4.95465">
        <ele>161.16</ele>
        <time>2018-08-10T07:35:54Z</time>
      </trkpt>
      <trkpt lat="49.66808" lon="4.95456">
        <ele>158.27</ele>
        <time>2018-08-10T07:36:11Z</time>
      </trkpt>
      <trkpt lat="49.66788" lon="4.9545">
        <ele>159.72</ele>
        <time>2018-08-10T07:36:26Z</time>
      </trkpt>
      <trkpt lat="49.66769" lon="4.95443">
        <ele>161.16</ele>
        <time>2018-08-10T07:36:45Z</time>
      </trkpt>
      <trkpt lat="49.66756" lon="4.9544">
        <ele>162.12</ele>
        <time>2018-08-10T07:36:57Z</time>
      </trkpt>
      <trkpt lat="49.66736" lon="4.95432">
        <ele>163.08</ele>
        <time>2018-08-10T07:37:14Z</time>
      </trkpt>
      <trkpt lat="49.66714" lon="4.95425">
        <ele>162.12</ele>
        <time>2018-08-10T07:37:30Z</time>
      </trkpt>
      <trkpt lat="49.66693" lon="4.95413">
        <ele>162.6</ele>
        <time>2018-08-10T07:37:48Z</time>
      </trkpt>
      <trkpt lat="49.66677" lon="4.954">
        <ele>163.56</ele>
        <time>2018-08-10T07:38:02Z</time>
      </trkpt>
      <trkpt lat="49.66662" lon="4.95384">
        <ele>163.56</ele>
        <time>2018-08-10T07:38:18Z</time>
      </trkpt>
      <trkpt lat="49.66661" lon="4.95383">
        <ele>163.56</ele>
        <time>2018-08-10T07:38:19Z</time>
      </trkpt>
      <trkpt lat="49.66654" lon="4.9537">
        <ele>164.52</ele>
        <time>2018-08-10T07:38:28Z</time>
      </trkpt>
      <trkpt lat="49.66648" lon="4.95362">
        <ele>164.04</ele>
        <time>2018-08-10T07:38:36Z</time>
      </trkpt>
      <trkpt lat="49.66646" lon="4.95355">
        <ele>164.04</ele>
        <time>2018-08-10T07:38:40Z</time>
      </trkpt>
      <trkpt lat="49.66644" lon="4.95347">
        <ele>163.56</ele>
        <time>2018-08-10T07:38:44Z</time>
      </trkpt>
      <trkpt lat="49.66645" lon="4.95335">
        <ele>163.08</ele>
        <time>2018-08-10T07:38:52Z</time>
      </trkpt>
      <trkpt lat="49.66661" lon="4.95316">
        <ele>166.45</ele>
        <time>2018-08-10T07:39:09Z</time>
      </trkpt>
      <trkpt lat="49.66674" lon="4.95295">
        <ele>169.81</ele>
        <time>2018-08-10T07:39:26Z</time>
      </trkpt>
      <trkpt lat="49.66688" lon="4.95273">
        <ele>172.21</ele>
        <time>2018-08-10T07:39:43Z</time>
      </trkpt>
      <trkpt lat="49.66699" lon="4.95255">
        <ele>174.14</ele>
        <time>2018-08-10T07:39:57Z</time>
      </trkpt>
      <trkpt lat="49.6671" lon="4.95233">
        <ele>176.06</ele>
        <time>2018-08-10T07:40:14Z</time>
      </trkpt>
      <trkpt lat="49.66718" lon="4.95209">
        <ele>177.5</ele>
        <time>2018-08-10T07:40:29Z</time>
      </trkpt>
      <trkpt lat="49.66726" lon="4.95188">
        <ele>178.94</ele>
        <time>2018-08-10T07:40:44Z</time>
      </trkpt>
      <trkpt lat="49.66734" lon="4.95162">
        <ele>180.87</ele>
        <time>2018-08-10T07:41:00Z</time>
      </trkpt>
      <trkpt lat="49.66743" lon="4.95139">
        <ele>182.31</ele>
        <time>2018-08-10T07:41:16Z</time>
      </trkpt>
      <trkpt lat="49.66751" lon="4.95117">
        <ele>183.27</ele>
        <time>2018-08-10T07:41:30Z</time>
      </trkpt>
      <trkpt lat="49.66761" lon="4.95094">
        <ele>184.71</ele>
        <time>2018-08-10T07:41:45Z</time>
      </trkpt>
      <trkpt lat="49.66765" lon="4.9507">
        <ele>186.15</ele>
        <time>2018-08-10T07:42:00Z</time>
      </trkpt>
      <trkpt lat="49.6677" lon="4.9504">
        <ele>188.08</ele>
        <time>2018-08-10T07:42:17Z</time>
      </trkpt>
      <trkpt lat="49.66774" lon="4.95012">
        <ele>189.52</ele>
        <time>2018-08-10T07:42:33Z</time>
      </trkpt>
      <trkpt lat="49.66778" lon="4.94983">
        <ele>190.96</ele>
        <time>2018-08-10T07:42:51Z</time>
      </trkpt>
      <trkpt lat="49.66782" lon="4.94954">
        <ele>191.44</ele>
        <time>2018-08-10T07:43:07Z</time>
      </trkpt>
      <trkpt lat="49.66786" lon="4.94925">
        <ele>191.44</ele>
        <time>2018-08-10T07:43:23Z</time>
      </trkpt>
      <trkpt lat="49.66789" lon="4.94899">
        <ele>190.96</ele>
        <time>2018-08-10T07:43:38Z</time>
      </trkpt>
      <trkpt lat="49.66789" lon="4.94894">
        <ele>190.96</ele>
        <time>2018-08-10T07:43:41Z</time>
      </trkpt>
      <trkpt lat="49.66794" lon="4.94864">
        <ele>192.88</ele>
        <time>2018-08-10T07:43:58Z</time>
      </trkpt>
      <trkpt lat="49.66796" lon="4.94851">
        <ele>193.36</ele>
        <time>2018-08-10T07:44:06Z</time>
      </trkpt>
      <trkpt lat="49.66801" lon="4.94824">
        <ele>194.8</ele>
        <time>2018-08-10T07:44:22Z</time>
      </trkpt>
      <trkpt lat="49.66805" lon="4.94796">
        <ele>196.73</ele>
        <time>2018-08-10T07:44:39Z</time>
      </trkpt>
      <trkpt lat="49.66807" lon="4.94773">
        <ele>198.65</ele>
        <time>2018-08-10T07:44:52Z</time>
      </trkpt>
      <trkpt lat="49.66806" lon="4.94745">
        <ele>200.09</ele>
        <time>2018-08-10T07:45:08Z</time>
      </trkpt>
      <trkpt lat="49.66805" lon="4.94717">
        <ele>199.61</ele>
        <time>2018-08-10T07:45:23Z</time>
      </trkpt>
      <trkpt lat="49.66804" lon="4.94689">
        <ele>199.61</ele>
        <time>2018-08-10T07:45:39Z</time>
      </trkpt>
      <trkpt lat="49.66804" lon="4.9466">
        <ele>200.09</ele>
        <time>2018-08-10T07:45:55Z</time>
      </trkpt>
      <trkpt lat="49.66805" lon="4.94635">
        <ele>200.57</ele>
        <time>2018-08-10T07:46:10Z</time>
      </trkpt>
      <trkpt lat="49.66804" lon="4.94611">
        <ele>201.05</ele>
        <time>2018-08-10T07:46:24Z</time>
      </trkpt>
      <trkpt lat="49.66802" lon="4.94588">
        <ele>202.98</ele>
        <time>2018-08-10T07:46:38Z</time>
      </trkpt>
      <trkpt lat="49.66798" lon="4.94565">
        <ele>204.42</ele>
        <time>2018-08-10T07:46:52Z</time>
      </trkpt>
      <trkpt lat="49.66794" lon="4.94555">
        <ele>204.42</ele>
        <time>2018-08-10T07:46:59Z</time>
      </trkpt>
      <trkpt lat="49.66789" lon="4.94531">
        <ele>205.38</ele>
        <time>2018-08-10T07:47:13Z</time>
      </trkpt>
      <trkpt lat="49.66783" lon="4.94506">
        <ele>206.82</ele>
        <time>2018-08-10T07:47:29Z</time>
      </trkpt>
      <trkpt lat="49.66777" lon="4.94482">
        <ele>208.74</ele>
        <time>2018-08-10T07:47:44Z</time>
      </trkpt>
      <trkpt lat="49.66769" lon="4.94458">
        <ele>210.19</ele>
        <time>2018-08-10T07:47:58Z</time>
      </trkpt>
      <trkpt lat="49.66763" lon="4.94433">
        <ele>211.63</ele>
        <time>2018-08-10T07:48:14Z</time>
      </trkpt>
      <trkpt lat="49.66757" lon="4.94408">
        <ele>213.55</ele>
        <time>2018-08-10T07:48:30Z</time>
      </trkpt>
      <trkpt lat="49.6675" lon="4.94385">
        <ele>214.99</ele>
        <time>2018-08-10T07:48:46Z</time>
      </trkpt>
      <trkpt lat="49.66742" lon="4.94358">
        <ele>215.95</ele>
        <time>2018-08-10T07:49:02Z</time>
      </trkpt>
      <trkpt lat="49.66736" lon="4.94336">
        <ele>217.4</ele>
        <time>2018-08-10T07:49:17Z</time>
      </trkpt>
      <trkpt lat="49.66729" lon="4.94311">
        <ele>217.88</ele>
        <time>2018-08-10T07:49:33Z</time>
      </trkpt>
      <trkpt lat="49.66723" lon="4.9429">
        <ele>219.8</ele>
        <time>2018-08-10T07:49:47Z</time>
      </trkpt>
      <trkpt lat="49.66715" lon="4.94268">
        <ele>221.72</ele>
        <time>2018-08-10T07:50:03Z</time>
      </trkpt>
      <trkpt lat="49.66707" lon="4.94242">
        <ele>222.68</ele>
        <time>2018-08-10T07:50:19Z</time>
      </trkpt>
      <trkpt lat="49.66699" lon="4.94219">
        <ele>222.68</ele>
        <time>2018-08-10T07:50:34Z</time>
      </trkpt>
      <trkpt lat="49.66691" lon="4.94196">
        <ele>222.2</ele>
        <time>2018-08-10T07:50:50Z</time>
      </trkpt>
      <trkpt lat="49.66683" lon="4.94171">
        <ele>222.2</ele>
        <time>2018-08-10T07:51:05Z</time>
      </trkpt>
      <trkpt lat="49.66675" lon="4.94147">
        <ele>222.2</ele>
        <time>2018-08-10T07:51:21Z</time>
      </trkpt>
      <trkpt lat="49.66667" lon="4.94125">
        <ele>223.16</ele>
        <time>2018-08-10T07:51:35Z</time>
      </trkpt>
      <trkpt lat="49.66658" lon="4.94098">
        <ele>224.61</ele>
        <time>2018-08-10T07:51:52Z</time>
      </trkpt>
      <trkpt lat="49.66651" lon="4.94075">
        <ele>225.57</ele>
        <time>2018-08-10T07:52:08Z</time>
      </trkpt>
      <trkpt lat="49.66647" lon="4.94064">
        <ele>226.53</ele>
        <time>2018-08-10T07:52:20Z</time>
      </trkpt>
      <trkpt lat="49.66643" lon="4.94046">
        <ele>227.49</ele>
        <time>2018-08-10T07:52:32Z</time>
      </trkpt>
      <trkpt lat="49.66631" lon="4.9402">
        <ele>228.45</ele>
        <time>2018-08-10T07:52:49Z</time>
      </trkpt>
      <trkpt lat="49.66622" lon="4.93997">
        <ele>228.45</ele>
        <time>2018-08-10T07:53:05Z</time>
      </trkpt>
      <trkpt lat="49.66613" lon="4.93974">
        <ele>228.93</ele>
        <time>2018-08-10T07:53:20Z</time>
      </trkpt>
      <trkpt lat="49.66604" lon="4.93952">
        <ele>230.37</ele>
        <time>2018-08-10T07:53:36Z</time>
      </trkpt>
      <trkpt lat="49.66597" lon="4.93929">
        <ele>232.3</ele>
        <time>2018-08-10T07:53:50Z</time>
      </trkpt>
      <trkpt lat="49.66592" lon="4.9391">
        <ele>234.7</ele>
        <time>2018-08-10T07:54:04Z</time>
      </trkpt>
      <trkpt lat="49.66583" lon="4.93886">
        <ele>237.58</ele>
        <time>2018-08-10T07:54:20Z</time>
      </trkpt>
      <trkpt lat="49.66582" lon="4.93883">
        <ele>238.06</ele>
        <time>2018-08-10T07:54:23Z</time>
      </trkpt>
      <trkpt lat="49.66574" lon="4.93858">
        <ele>240.47</ele>
        <time>2018-08-10T07:54:39Z</time>
      </trkpt>
      <trkpt lat="49.66567" lon="4.93838">
        <ele>242.87</ele>
        <time>2018-08-10T07:54:54Z</time>
      </trkpt>
      <trkpt lat="49.66558" lon="4.93818">
        <ele>244.31</ele>
        <time>2018-08-10T07:55:08Z</time>
      </trkpt>
      <trkpt lat="49.66549" lon="4.93796">
        <ele>246.23</ele>
        <time>2018-08-10T07:55:24Z</time>
      </trkpt>
      <trkpt lat="49.6654" lon="4.93777">
        <ele>247.2</ele>
        <time>2018-08-10T07:55:38Z</time>
      </trkpt>
      <trkpt lat="49.66531" lon="4.93759">
        <ele>247.68</ele>
        <time>2018-08-10T07:55:51Z</time>
      </trkpt>
      <trkpt lat="49.66522" lon="4.93739">
        <ele>248.16</ele>
        <time>2018-08-10T07:56:06Z</time>
      </trkpt>
      <trkpt lat="49.66512" lon="4.93717">
        <ele>250.56</ele>
        <time>2018-08-10T07:56:21Z</time>
      </trkpt>
      <trkpt lat="49.66503" lon="4.93698">
        <ele>251.52</ele>
        <time>2018-08-10T07:56:36Z</time>
      </trkpt>
      <trkpt lat="49.6649" lon="4.93677">
        <ele>252</ele>
        <time>2018-08-10T07:56:52Z</time>
      </trkpt>
      <trkpt lat="49.66477" lon="4.93657">
        <ele>252.96</ele>
        <time>2018-08-10T07:57:09Z</time>
      </trkpt>
      <trkpt lat="49.66462" lon="4.93636">
        <ele>253.93</ele>
        <time>2018-08-10T07:57:26Z</time>
      </trkpt>
      <trkpt lat="49.66452" lon="4.93617">
        <ele>254.41</ele>
        <time>2018-08-10T07:57:41Z</time>
      </trkpt>
      <trkpt lat="49.66446" lon="4.93611">
        <ele>254.41</ele>
        <time>2018-08-10T07:57:47Z</time>
      </trkpt>
      <trkpt lat="49.66431" lon="4.93592">
        <ele>255.85</ele>
        <time>2018-08-10T07:58:03Z</time>
      </trkpt>
      <trkpt lat="49.66419" lon="4.93578">
        <ele>257.77</ele>
        <time>2018-08-10T07:58:18Z</time>
      </trkpt>
      <trkpt lat="49.66406" lon="4.9357">
        <ele>259.69</ele>
        <time>2018-08-10T07:58:31Z</time>
      </trkpt>
      <trkpt lat="49.6639" lon="4.9356">
        <ele>261.62</ele>
        <time>2018-08-10T07:58:46Z</time>
      </trkpt>
      <trkpt lat="49.66375" lon="4.93558">
        <ele>263.06</ele>
        <time>2018-08-10T07:59:00Z</time>
      </trkpt>
      <trkpt lat="49.66359" lon="4.93553">
        <ele>263.06</ele>
        <time>2018-08-10T07:59:15Z</time>
      </trkpt>
      <trkpt lat="49.66342" lon="4.93542">
        <ele>263.54</ele>
        <time>2018-08-10T07:59:30Z</time>
      </trkpt>
      <trkpt lat="49.66335" lon="4.93533">
        <ele>264.5</ele>
        <time>2018-08-10T07:59:38Z</time>
      </trkpt>
      <trkpt lat="49.66331" lon="4.93526">
        <ele>265.46</ele>
        <time>2018-08-10T07:59:43Z</time>
      </trkpt>
      <trkpt lat="49.66315" lon="4.9352">
        <ele>266.9</ele>
        <time>2018-08-10T07:59:59Z</time>
      </trkpt>
      <trkpt lat="49.66294" lon="4.93522">
        <ele>269.79</ele>
        <time>2018-08-10T08:00:14Z</time>
      </trkpt>
      <trkpt lat="49.66277" lon="4.9353">
        <ele>269.79</ele>
        <time>2018-08-10T08:00:30Z</time>
      </trkpt>
      <trkpt lat="49.66257" lon="4.93537">
        <ele>269.31</ele>
        <time>2018-08-10T08:00:47Z</time>
      </trkpt>
      <trkpt lat="49.6624" lon="4.93548">
        <ele>270.27</ele>
        <time>2018-08-10T08:01:03Z</time>
      </trkpt>
      <trkpt lat="49.66226" lon="4.9356">
        <ele>272.67</ele>
        <time>2018-08-10T08:01:18Z</time>
      </trkpt>
      <trkpt lat="49.66211" lon="4.93572">
        <ele>273.63</ele>
        <time>2018-08-10T08:01:33Z</time>
      </trkpt>
      <trkpt lat="49.662" lon="4.93592">
        <ele>273.63</ele>
        <time>2018-08-10T08:01:48Z</time>
      </trkpt>
      <trkpt lat="49.66189" lon="4.93619">
        <ele>274.59</ele>
        <time>2018-08-10T08:02:04Z</time>
      </trkpt>
      <trkpt lat="49.66173" lon="4.93639">
        <ele>273.63</ele>
        <time>2018-08-10T08:02:21Z</time>
      </trkpt>
      <trkpt lat="49.6616" lon="4.93654">
        <ele>273.63</ele>
        <time>2018-08-10T08:02:37Z</time>
      </trkpt>
      <trkpt lat="49.6616" lon="4.93656">
        <ele>274.11</ele>
        <time>2018-08-10T08:02:40Z</time>
      </trkpt>
      <trkpt lat="49.66155" lon="4.93668">
        <ele>271.71</ele>
        <time>2018-08-10T08:02:48Z</time>
      </trkpt>
      <trkpt lat="49.66152" lon="4.93673">
        <ele>270.75</ele>
        <time>2018-08-10T08:02:52Z</time>
      </trkpt>
      <trkpt lat="49.66138" lon="4.93693">
        <ele>270.27</ele>
        <time>2018-08-10T08:03:09Z</time>
      </trkpt>
      <trkpt lat="49.66128" lon="4.93722">
        <ele>269.79</ele>
        <time>2018-08-10T08:03:28Z</time>
      </trkpt>
      <trkpt lat="49.66117" lon="4.93748">
        <ele>272.19</ele>
        <time>2018-08-10T08:03:45Z</time>
      </trkpt>
      <trkpt lat="49.66108" lon="4.93762">
        <ele>271.23</ele>
        <time>2018-08-10T08:04:03Z</time>
      </trkpt>
      <trkpt lat="49.66107" lon="4.93764">
        <ele>270.75</ele>
        <time>2018-08-10T08:04:23Z</time>
      </trkpt>
      <trkpt lat="49.66107" lon="4.93765">
        <ele>270.27</ele>
        <time>2018-08-10T08:04:47Z</time>
      </trkpt>
      <trkpt lat="49.66106" lon="4.93765">
        <ele>269.79</ele>
        <time>2018-08-10T08:05:16Z</time>
      </trkpt>
      <trkpt lat="49.66105" lon="4.93766">
        <ele>269.79</ele>
        <time>2018-08-10T08:05:37Z</time>
      </trkpt>
      <trkpt lat="49.66105" lon="4.93766">
        <ele>270.27</ele>
        <time>2018-08-10T08:05:56Z</time>
      </trkpt>
      <trkpt lat="49.66092" lon="4.93775">
        <ele>265.46</ele>
        <time>2018-08-10T08:06:11Z</time>
      </trkpt>
      <trkpt lat="49.66079" lon="4.93797">
        <ele>262.1</ele>
        <time>2018-08-10T08:06:31Z</time>
      </trkpt>
      <trkpt lat="49.66066" lon="4.93807">
        <ele>259.69</ele>
        <time>2018-08-10T08:06:45Z</time>
      </trkpt>
      <trkpt lat="49.66059" lon="4.93811">
        <ele>259.21</ele>
        <time>2018-08-10T08:06:50Z</time>
      </trkpt>
      <trkpt lat="49.66054" lon="4.93814">
        <ele>259.21</ele>
        <time>2018-08-10T08:06:55Z</time>
      </trkpt>
      <trkpt lat="49.66039" lon="4.93825">
        <ele>259.21</ele>
        <time>2018-08-10T08:07:10Z</time>
      </trkpt>
      <trkpt lat="49.66026" lon="4.93832">
        <ele>257.77</ele>
        <time>2018-08-10T08:07:22Z</time>
      </trkpt>
      <trkpt lat="49.66005" lon="4.93846">
        <ele>256.81</ele>
        <time>2018-08-10T08:07:39Z</time>
      </trkpt>
      <trkpt lat="49.65984" lon="4.93859">
        <ele>255.37</ele>
        <time>2018-08-10T08:07:59Z</time>
      </trkpt>
      <trkpt lat="49.65963" lon="4.93876">
        <ele>252.96</ele>
        <time>2018-08-10T08:08:15Z</time>
      </trkpt>
      <trkpt lat="49.65943" lon="4.93893">
        <ele>251.52</ele>
        <time>2018-08-10T08:08:32Z</time>
      </trkpt>
      <trkpt lat="49.65926" lon="4.9391">
        <ele>249.6</ele>
        <time>2018-08-10T08:08:50Z</time>
      </trkpt>
      <trkpt lat="49.6591" lon="4.93922">
        <ele>247.2</ele>
        <time>2018-08-10T08:09:05Z</time>
      </trkpt>
      <trkpt lat="49.65888" lon="4.93937">
        <ele>242.87</ele>
        <time>2018-08-10T08:09:24Z</time>
      </trkpt>
      <trkpt lat="49.65879" lon="4.93943">
        <ele>239.99</ele>
        <time>2018-08-10T08:09:33Z</time>
      </trkpt>
      <trkpt lat="49.65855" lon="4.93956">
        <ele>236.62</ele>
        <time>2018-08-10T08:09:53Z</time>
      </trkpt>
      <trkpt lat="49.65828" lon="4.93964">
        <ele>234.7</ele>
        <time>2018-08-10T08:10:16Z</time>
      </trkpt>
      <trkpt lat="49.65809" lon="4.93969">
        <ele>231.33</ele>
        <time>2018-08-10T08:10:33Z</time>
      </trkpt>
      <trkpt lat="49.65784" lon="4.93978">
        <ele>221.24</ele>
        <time>2018-08-10T08:10:54Z</time>
      </trkpt>
      <trkpt lat="49.65762" lon="4.9399">
        <ele>217.4</ele>
        <time>2018-08-10T08:11:14Z</time>
      </trkpt>
      <trkpt lat="49.65743" lon="4.94004">
        <ele>220.28</ele>
        <time>2018-08-10T08:11:33Z</time>
      </trkpt>
      <trkpt lat="49.65719" lon="4.9402">
        <ele>220.28</ele>
        <time>2018-08-10T08:11:59Z</time>
      </trkpt>
      <trkpt lat="49.65696" lon="4.94037">
        <ele>218.84</ele>
        <time>2018-08-10T08:12:19Z</time>
      </trkpt>
      <trkpt lat="49.65674" lon="4.94059">
        <ele>216.91</ele>
        <time>2018-08-10T08:12:41Z</time>
      </trkpt>
      <trkpt lat="49.65658" lon="4.94076">
        <ele>214.51</ele>
        <time>2018-08-10T08:12:58Z</time>
      </trkpt>
      <trkpt lat="49.65642" lon="4.94099">
        <ele>215.95</ele>
        <time>2018-08-10T08:13:19Z</time>
      </trkpt>
      <trkpt lat="49.65624" lon="4.94129">
        <ele>211.15</ele>
        <time>2018-08-10T08:13:40Z</time>
      </trkpt>
      <trkpt lat="49.6561" lon="4.94159">
        <ele>208.74</ele>
        <time>2018-08-10T08:14:01Z</time>
      </trkpt>
      <trkpt lat="49.65598" lon="4.94189">
        <ele>209.22</ele>
        <time>2018-08-10T08:14:21Z</time>
      </trkpt>
      <trkpt lat="49.65587" lon="4.94214">
        <ele>208.74</ele>
        <time>2018-08-10T08:14:35Z</time>
      </trkpt>
      <trkpt lat="49.65573" lon="4.94236">
        <ele>209.22</ele>
        <time>2018-08-10T08:14:54Z</time>
      </trkpt>
      <trkpt lat="49.65555" lon="4.94259">
        <ele>209.22</ele>
        <time>2018-08-10T08:15:15Z</time>
      </trkpt>
      <trkpt lat="49.65538" lon="4.94275">
        <ele>206.82</ele>
        <time>2018-08-10T08:15:33Z</time>
      </trkpt>
      <trkpt lat="49.65518" lon="4.94294">
        <ele>202.98</ele>
        <time>2018-08-10T08:15:51Z</time>
      </trkpt>
      <trkpt lat="49.65509" lon="4.94299">
        <ele>202.01</ele>
        <time>2018-08-10T08:15:58Z</time>
      </trkpt>
      <trkpt lat="49.65497" lon="4.94314">
        <ele>200.09</ele>
        <time>2018-08-10T08:16:12Z</time>
      </trkpt>
      <trkpt lat="49.65474" lon="4.94334">
        <ele>198.17</ele>
        <time>2018-08-10T08:16:35Z</time>
      </trkpt>
      <trkpt lat="49.65459" lon="4.94346">
        <ele>196.25</ele>
        <time>2018-08-10T08:16:49Z</time>
      </trkpt>
      <trkpt lat="49.65455" lon="4.94352">
        <ele>195.28</ele>
        <time>2018-08-10T08:16:55Z</time>
      </trkpt>
      <trkpt lat="49.65445" lon="4.94372">
        <ele>195.28</ele>
        <time>2018-08-10T08:17:10Z</time>
      </trkpt>
      <trkpt lat="49.65445" lon="4.94373">
        <ele>195.77</ele>
        <time>2018-08-10T08:17:11Z</time>
      </trkpt>
      <trkpt lat="49.65438" lon="4.94388">
        <ele>198.17</ele>
        <time>2018-08-10T08:17:21Z</time>
      </trkpt>
      <trkpt lat="49.65433" lon="4.94418">
        <ele>204.42</ele>
        <time>2018-08-10T08:17:37Z</time>
      </trkpt>
      <trkpt lat="49.65433" lon="4.94447">
        <ele>207.78</ele>
        <time>2018-08-10T08:17:52Z</time>
      </trkpt>
      <trkpt lat="49.65435" lon="4.94479">
        <ele>208.74</ele>
        <time>2018-08-10T08:18:10Z</time>
      </trkpt>
      <trkpt lat="49.65434" lon="4.94508">
        <ele>201.05</ele>
        <time>2018-08-10T08:18:26Z</time>
      </trkpt>
      <trkpt lat="49.65434" lon="4.94532">
        <ele>198.17</ele>
        <time>2018-08-10T08:18:39Z</time>
      </trkpt>
      <trkpt lat="49.65437" lon="4.94557">
        <ele>196.25</ele>
        <time>2018-08-10T08:18:53Z</time>
      </trkpt>
      <trkpt lat="49.65437" lon="4.94586">
        <ele>196.73</ele>
        <time>2018-08-10T08:19:09Z</time>
      </trkpt>
      <trkpt lat="49.65431" lon="4.94611">
        <ele>193.36</ele>
        <time>2018-08-10T08:19:26Z</time>
      </trkpt>
      <trkpt lat="49.65415" lon="4.94628">
        <ele>190</ele>
        <time>2018-08-10T08:19:43Z</time>
      </trkpt>
      <trkpt lat="49.65413" lon="4.9463">
        <ele>189.52</ele>
        <time>2018-08-10T08:19:45Z</time>
      </trkpt>
      <trkpt lat="49.65413" lon="4.94637">
        <ele>189.04</ele>
        <time>2018-08-10T08:19:49Z</time>
      </trkpt>
      <trkpt lat="49.65422" lon="4.94649">
        <ele>186.63</ele>
        <time>2018-08-10T08:20:00Z</time>
      </trkpt>
      <trkpt lat="49.65425" lon="4.94655">
        <ele>184.71</ele>
        <time>2018-08-10T08:20:04Z</time>
      </trkpt>
      <trkpt lat="49.65442" lon="4.9467">
        <ele>179.9</ele>
        <time>2018-08-10T08:20:21Z</time>
      </trkpt>
      <trkpt lat="49.65456" lon="4.94679">
        <ele>180.87</ele>
        <time>2018-08-10T08:20:36Z</time>
      </trkpt>
      <trkpt lat="49.65467" lon="4.94688">
        <ele>177.02</ele>
        <time>2018-08-10T08:20:50Z</time>
      </trkpt>
      <trkpt lat="49.65472" lon="4.94714">
        <ele>174.14</ele>
        <time>2018-08-10T08:21:05Z</time>
      </trkpt>
      <trkpt lat="49.65473" lon="4.94717">
        <ele>174.14</ele>
        <time>2018-08-10T08:21:07Z</time>
      </trkpt>
      <trkpt lat="49.65469" lon="4.94754">
        <ele>172.69</ele>
        <time>2018-08-10T08:21:26Z</time>
      </trkpt>
      <trkpt lat="49.65463" lon="4.94781">
        <ele>171.73</ele>
        <time>2018-08-10T08:21:42Z</time>
      </trkpt>
      <trkpt lat="49.6545" lon="4.94803">
        <ele>166.93</ele>
        <time>2018-08-10T08:22:01Z</time>
      </trkpt>
      <trkpt lat="49.6543" lon="4.9483">
        <ele>165</ele>
        <time>2018-08-10T08:22:22Z</time>
      </trkpt>
      <trkpt lat="49.65415" lon="4.94851">
        <ele>163.08</ele>
        <time>2018-08-10T08:22:37Z</time>
      </trkpt>
      <trkpt lat="49.65402" lon="4.94874">
        <ele>162.6</ele>
        <time>2018-08-10T08:22:54Z</time>
      </trkpt>
      <trkpt lat="49.65402" lon="4.94879">
        <ele>163.56</ele>
        <time>2018-08-10T08:23:08Z</time>
      </trkpt>
      <trkpt lat="49.65404" lon="4.9488">
        <ele>163.56</ele>
        <time>2018-08-10T08:23:33Z</time>
      </trkpt>
      <trkpt lat="49.65404" lon="4.94879">
        <ele>163.08</ele>
        <time>2018-08-10T08:24:11Z</time>
      </trkpt>
      <trkpt lat="49.65404" lon="4.94879">
        <ele>164.52</ele>
        <time>2018-08-10T08:24:47Z</time>
      </trkpt>
      <trkpt lat="49.65405" lon="4.94879">
        <ele>165</ele>
        <time>2018-08-10T08:25:23Z</time>
      </trkpt>
      <trkpt lat="49.65405" lon="4.94879">
        <ele>165</ele>
        <time>2018-08-10T08:25:57Z</time>
      </trkpt>
      <trkpt lat="49.65405" lon="4.94879">
        <ele>165</ele>
        <time>2018-08-10T08:26:28Z</time>
      </trkpt>
      <trkpt lat="49.65406" lon="4.94879">
        <ele>165.48</ele>
        <time>2018-08-10T08:27:04Z</time>
      </trkpt>
      <trkpt lat="49.65406" lon="4.94879">
        <ele>165</ele>
        <time>2018-08-10T08:27:36Z</time>
      </trkpt>
      <trkpt lat="49.65406" lon="4.9488">
        <ele>165.96</ele>
        <time>2018-08-10T08:27:51Z</time>
      </trkpt>
      <trkpt lat="49.65407" lon="4.9488">
        <ele>165.48</ele>
        <time>2018-08-10T08:28:17Z</time>
      </trkpt>
      <trkpt lat="49.65407" lon="4.9488">
        <ele>165.48</ele>
        <time>2018-08-10T08:28:38Z</time>
      </trkpt>
      <trkpt lat="49.65407" lon="4.94881">
        <ele>165.48</ele>
        <time>2018-08-10T08:28:59Z</time>
      </trkpt>
      <trkpt lat="49.65406" lon="4.94882">
        <ele>165.48</ele>
        <time>2018-08-10T08:29:12Z</time>
      </trkpt>
      <trkpt lat="49.65395" lon="4.9489">
        <ele>166.93</ele>
        <time>2018-08-10T08:29:28Z</time>
      </trkpt>
      <trkpt lat="49.65382" lon="4.94914">
        <ele>168.37</ele>
        <time>2018-08-10T08:29:45Z</time>
      </trkpt>
      <trkpt lat="49.65377" lon="4.94938">
        <ele>169.81</ele>
        <time>2018-08-10T08:30:00Z</time>
      </trkpt>
      <trkpt lat="49.65378" lon="4.94967">
        <ele>169.81</ele>
        <time>2018-08-10T08:30:17Z</time>
      </trkpt>
      <trkpt lat="49.65382" lon="4.94997">
        <ele>170.29</ele>
        <time>2018-08-10T08:30:33Z</time>
      </trkpt>
      <trkpt lat="49.65383" lon="4.95023">
        <ele>171.73</ele>
        <time>2018-08-10T08:30:49Z</time>
      </trkpt>
      <trkpt lat="49.65382" lon="4.95049">
        <ele>172.21</ele>
        <time>2018-08-10T08:31:04Z</time>
      </trkpt>
      <trkpt lat="49.65379" lon="4.95075">
        <ele>172.21</ele>
        <time>2018-08-10T08:31:20Z</time>
      </trkpt>
      <trkpt lat="49.65377" lon="4.95101">
        <ele>175.1</ele>
        <time>2018-08-10T08:31:35Z</time>
      </trkpt>
      <trkpt lat="49.65377" lon="4.95103">
        <ele>175.58</ele>
        <time>2018-08-10T08:31:37Z</time>
      </trkpt>
      <trkpt lat="49.65374" lon="4.95133">
        <ele>177.5</ele>
        <time>2018-08-10T08:31:55Z</time>
      </trkpt>
      <trkpt lat="49.65371" lon="4.95161">
        <ele>177.02</ele>
        <time>2018-08-10T08:32:12Z</time>
      </trkpt>
      <trkpt lat="49.65368" lon="4.95186">
        <ele>178.46</ele>
        <time>2018-08-10T08:32:27Z</time>
      </trkpt>
      <trkpt lat="49.65366" lon="4.95212">
        <ele>179.42</ele>
        <time>2018-08-10T08:32:43Z</time>
      </trkpt>
      <trkpt lat="49.65363" lon="4.95239">
        <ele>181.83</ele>
        <time>2018-08-10T08:32:59Z</time>
      </trkpt>
      <trkpt lat="49.65361" lon="4.95263">
        <ele>183.75</ele>
        <time>2018-08-10T08:33:14Z</time>
      </trkpt>
      <trkpt lat="49.65358" lon="4.95291">
        <ele>186.15</ele>
        <time>2018-08-10T08:33:31Z</time>
      </trkpt>
      <trkpt lat="49.65355" lon="4.95317">
        <ele>188.56</ele>
        <time>2018-08-10T08:33:48Z</time>
      </trkpt>
      <trkpt lat="49.65349" lon="4.95342">
        <ele>190.48</ele>
        <time>2018-08-10T08:34:05Z</time>
      </trkpt>
      <trkpt lat="49.65343" lon="4.95364">
        <ele>192.88</ele>
        <time>2018-08-10T08:34:20Z</time>
      </trkpt>
      <trkpt lat="49.65336" lon="4.95389">
        <ele>194.32</ele>
        <time>2018-08-10T08:34:37Z</time>
      </trkpt>
      <trkpt lat="49.65329" lon="4.9541">
        <ele>195.28</ele>
        <time>2018-08-10T08:34:52Z</time>
      </trkpt>
      <trkpt lat="49.65323" lon="4.9543">
        <ele>197.69</ele>
        <time>2018-08-10T08:35:06Z</time>
      </trkpt>
      <trkpt lat="49.65322" lon="4.95434">
        <ele>198.17</ele>
        <time>2018-08-10T08:35:09Z</time>
      </trkpt>
      <trkpt lat="49.65314" lon="4.95455">
        <ele>200.57</ele>
        <time>2018-08-10T08:35:24Z</time>
      </trkpt>
      <trkpt lat="49.65305" lon="4.95476">
        <ele>202.98</ele>
        <time>2018-08-10T08:35:40Z</time>
      </trkpt>
      <trkpt lat="49.65298" lon="4.95495">
        <ele>204.42</ele>
        <time>2018-08-10T08:35:55Z</time>
      </trkpt>
      <trkpt lat="49.6529" lon="4.9552">
        <ele>207.78</ele>
        <time>2018-08-10T08:36:12Z</time>
      </trkpt>
      <trkpt lat="49.65287" lon="4.95544">
        <ele>210.67</ele>
        <time>2018-08-10T08:36:28Z</time>
      </trkpt>
      <trkpt lat="49.65287" lon="4.9557">
        <ele>213.07</ele>
        <time>2018-08-10T08:36:45Z</time>
      </trkpt>
      <trkpt lat="49.65289" lon="4.95594">
        <ele>216.43</ele>
        <time>2018-08-10T08:37:02Z</time>
      </trkpt>
      <trkpt lat="49.65288" lon="4.95617">
        <ele>218.84</ele>
        <time>2018-08-10T08:37:17Z</time>
      </trkpt>
      <trkpt lat="49.65283" lon="4.95643">
        <ele>221.24</ele>
        <time>2018-08-10T08:37:36Z</time>
      </trkpt>
      <trkpt lat="49.65281" lon="4.95648">
        <ele>222.2</ele>
        <time>2018-08-10T08:37:40Z</time>
      </trkpt>
      <trkpt lat="49.65273" lon="4.95673">
        <ele>225.09</ele>
        <time>2018-08-10T08:37:58Z</time>
      </trkpt>
      <trkpt lat="49.65271" lon="4.957">
        <ele>227.49</ele>
        <time>2018-08-10T08:38:14Z</time>
      </trkpt>
      <trkpt lat="49.65273" lon="4.95713">
        <ele>228.45</ele>
        <time>2018-08-10T08:38:22Z</time>
      </trkpt>
      <trkpt lat="49.65277" lon="4.95741">
        <ele>230.37</ele>
        <time>2018-08-10T08:38:40Z</time>
      </trkpt>
      <trkpt lat="49.65282" lon="4.95766">
        <ele>232.3</ele>
        <time>2018-08-10T08:38:56Z</time>
      </trkpt>
      <trkpt lat="49.65286" lon="4.95788">
        <ele>235.18</ele>
        <time>2018-08-10T08:39:10Z</time>
      </trkpt>
      <trkpt lat="49.65291" lon="4.9581">
        <ele>236.14</ele>
        <time>2018-08-10T08:39:24Z</time>
      </trkpt>
      <trkpt lat="49.65295" lon="4.95833">
        <ele>236.14</ele>
        <time>2018-08-10T08:39:38Z</time>
      </trkpt>
      <trkpt lat="49.65299" lon="4.95854">
        <ele>236.14</ele>
        <time>2018-08-10T08:39:51Z</time>
      </trkpt>
      <trkpt lat="49.65304" lon="4.95881">
        <ele>236.62</ele>
        <time>2018-08-10T08:40:07Z</time>
      </trkpt>
      <trkpt lat="49.65309" lon="4.95902">
        <ele>237.58</ele>
        <time>2018-08-10T08:40:21Z</time>
      </trkpt>
      <trkpt lat="49.65314" lon="4.95924">
        <ele>239.51</ele>
        <time>2018-08-10T08:40:34Z</time>
      </trkpt>
      <trkpt lat="49.6532" lon="4.95945">
        <ele>240.95</ele>
        <time>2018-08-10T08:40:48Z</time>
      </trkpt>
      <trkpt lat="49.65325" lon="4.9597">
        <ele>241.43</ele>
        <time>2018-08-10T08:41:04Z</time>
      </trkpt>
      <trkpt lat="49.65331" lon="4.95997">
        <ele>241.91</ele>
        <time>2018-08-10T08:41:20Z</time>
      </trkpt>
      <trkpt lat="49.65334" lon="4.96009">
        <ele>241.91</ele>
        <time>2018-08-10T08:41:28Z</time>
      </trkpt>
      <trkpt lat="49.65341" lon="4.96036">
        <ele>241.91</ele>
        <time>2018-08-10T08:41:44Z</time>
      </trkpt>
      <trkpt lat="49.65347" lon="4.96062">
        <ele>241.91</ele>
        <time>2018-08-10T08:42:00Z</time>
      </trkpt>
      <trkpt lat="49.65354" lon="4.96089">
        <ele>241.91</ele>
        <time>2018-08-10T08:42:18Z</time>
      </trkpt>
      <trkpt lat="49.65359" lon="4.96109">
        <ele>243.83</ele>
        <time>2018-08-10T08:42:31Z</time>
      </trkpt>
      <trkpt lat="49.65365" lon="4.9613">
        <ele>244.79</ele>
        <time>2018-08-10T08:42:44Z</time>
      </trkpt>
      <trkpt lat="49.65372" lon="4.96157">
        <ele>244.79</ele>
        <time>2018-08-10T08:43:01Z</time>
      </trkpt>
      <trkpt lat="49.65384" lon="4.96173">
        <ele>247.2</ele>
        <time>2018-08-10T08:43:15Z</time>
      </trkpt>
      <trkpt lat="49.65399" lon="4.96186">
        <ele>248.16</ele>
        <time>2018-08-10T08:43:30Z</time>
      </trkpt>
      <trkpt lat="49.6541" lon="4.96198">
        <ele>248.64</ele>
        <time>2018-08-10T08:43:42Z</time>
      </trkpt>
      <trkpt lat="49.65427" lon="4.96214">
        <ele>248.64</ele>
        <time>2018-08-10T08:43:59Z</time>
      </trkpt>
      <trkpt lat="49.65442" lon="4.96229">
        <ele>249.12</ele>
        <time>2018-08-10T08:44:15Z</time>
      </trkpt>
      <trkpt lat="49.65455" lon="4.96244">
        <ele>251.04</ele>
        <time>2018-08-10T08:44:31Z</time>
      </trkpt>
      <trkpt lat="49.6547" lon="4.96261">
        <ele>251.52</ele>
        <time>2018-08-10T08:44:48Z</time>
      </trkpt>
      <trkpt lat="49.65473" lon="4.96265">
        <ele>252</ele>
        <time>2018-08-10T08:44:52Z</time>
      </trkpt>
      <trkpt lat="49.65491" lon="4.96285">
        <ele>254.89</ele>
        <time>2018-08-10T08:45:10Z</time>
      </trkpt>
      <trkpt lat="49.65505" lon="4.96297">
        <ele>255.37</ele>
        <time>2018-08-10T08:45:27Z</time>
      </trkpt>
      <trkpt lat="49.65519" lon="4.96313">
        <ele>257.29</ele>
        <time>2018-08-10T08:45:41Z</time>
      </trkpt>
      <trkpt lat="49.65536" lon="4.96331">
        <ele>258.73</ele>
        <time>2018-08-10T08:45:58Z</time>
      </trkpt>
      <trkpt lat="49.65548" lon="4.9635">
        <ele>258.25</ele>
        <time>2018-08-10T08:46:15Z</time>
      </trkpt>
      <trkpt lat="49.65549" lon="4.96353">
        <ele>258.25</ele>
        <time>2018-08-10T08:46:17Z</time>
      </trkpt>
      <trkpt lat="49.65542" lon="4.9638">
        <ele>260.65</ele>
        <time>2018-08-10T08:46:32Z</time>
      </trkpt>
      <trkpt lat="49.65536" lon="4.96409">
        <ele>263.06</ele>
        <time>2018-08-10T08:46:49Z</time>
      </trkpt>
      <trkpt lat="49.6553" lon="4.9643">
        <ele>263.54</ele>
        <time>2018-08-10T08:47:04Z</time>
      </trkpt>
      <trkpt lat="49.65521" lon="4.96455">
        <ele>264.98</ele>
        <time>2018-08-10T08:47:20Z</time>
      </trkpt>
      <trkpt lat="49.65514" lon="4.96474">
        <ele>267.38</ele>
        <time>2018-08-10T08:47:33Z</time>
      </trkpt>
      <trkpt lat="49.65506" lon="4.96496">
        <ele>267.86</ele>
        <time>2018-08-10T08:47:49Z</time>
      </trkpt>
      <trkpt lat="49.65506" lon="4.96497">
        <ele>267.86</ele>
        <time>2018-08-10T08:47:50Z</time>
      </trkpt>
      <trkpt lat="49.65506" lon="4.96502">
        <ele>267.86</ele>
        <time>2018-08-10T08:47:53Z</time>
      </trkpt>
      <trkpt lat="49.655" lon="4.96529">
        <ele>269.31</ele>
        <time>2018-08-10T08:48:09Z</time>
      </trkpt>
      <trkpt lat="49.65492" lon="4.96552">
        <ele>268.35</ele>
        <time>2018-08-10T08:48:25Z</time>
      </trkpt>
      <trkpt lat="49.65484" lon="4.96574">
        <ele>266.9</ele>
        <time>2018-08-10T08:48:41Z</time>
      </trkpt>
      <trkpt lat="49.65477" lon="4.96595">
        <ele>265.46</ele>
        <time>2018-08-10T08:48:56Z</time>
      </trkpt>
      <trkpt lat="49.65471" lon="4.96614">
        <ele>264.98</ele>
        <time>2018-08-10T08:49:11Z</time>
      </trkpt>
      <trkpt lat="49.65464" lon="4.96637">
        <ele>260.17</ele>
        <time>2018-08-10T08:49:27Z</time>
      </trkpt>
      <trkpt lat="49.65463" lon="4.96641">
        <ele>259.21</ele>
        <time>2018-08-10T08:49:30Z</time>
      </trkpt>
      <trkpt lat="49.65458" lon="4.96648">
        <ele>257.29</ele>
        <time>2018-08-10T08:49:36Z</time>
      </trkpt>
      <trkpt lat="49.65454" lon="4.96663">
        <ele>255.37</ele>
        <time>2018-08-10T08:49:45Z</time>
      </trkpt>
      <trkpt lat="49.65453" lon="4.9667">
        <ele>254.89</ele>
        <time>2018-08-10T08:49:51Z</time>
      </trkpt>
      <trkpt lat="49.65449" lon="4.9669">
        <ele>253.93</ele>
        <time>2018-08-10T08:50:05Z</time>
      </trkpt>
      <trkpt lat="49.65445" lon="4.96714">
        <ele>254.41</ele>
        <time>2018-08-10T08:50:21Z</time>
      </trkpt>
      <trkpt lat="49.65443" lon="4.96721">
        <ele>253.44</ele>
        <time>2018-08-10T08:50:25Z</time>
      </trkpt>
      <trkpt lat="49.6544" lon="4.9674">
        <ele>252</ele>
        <time>2018-08-10T08:50:44Z</time>
      </trkpt>
      <trkpt lat="49.6544" lon="4.9674">
        <ele>252.96</ele>
        <time>2018-08-10T08:51:02Z</time>
      </trkpt>
      <trkpt lat="49.6544" lon="4.96741">
        <ele>252.96</ele>
        <time>2018-08-10T08:51:28Z</time>
      </trkpt>
      <trkpt lat="49.6544" lon="4.96741">
        <ele>252</ele>
        <time>2018-08-10T08:51:49Z</time>
      </trkpt>
      <trkpt lat="49.6544" lon="4.96741">
        <ele>251.52</ele>
        <time>2018-08-10T08:52:01Z</time>
      </trkpt>
      <trkpt lat="49.6543" lon="4.9672">
        <ele>251.52</ele>
        <time>2018-08-10T08:52:16Z</time>
      </trkpt>
      <trkpt lat="49.65423" lon="4.96706">
        <ele>251.04</ele>
        <time>2018-08-10T08:52:25Z</time>
      </trkpt>
      <trkpt lat="49.6542" lon="4.967">
        <ele>251.04</ele>
        <time>2018-08-10T08:52:31Z</time>
      </trkpt>
      <trkpt lat="49.65416" lon="4.96687">
        <ele>252</ele>
        <time>2018-08-10T08:52:38Z</time>
      </trkpt>
      <trkpt lat="49.65406" lon="4.96658">
        <ele>253.44</ele>
        <time>2018-08-10T08:52:57Z</time>
      </trkpt>
      <trkpt lat="49.65398" lon="4.96634">
        <ele>252.48</ele>
        <time>2018-08-10T08:53:12Z</time>
      </trkpt>
      <trkpt lat="49.65389" lon="4.96609">
        <ele>254.41</ele>
        <time>2018-08-10T08:53:28Z</time>
      </trkpt>
      <trkpt lat="49.65381" lon="4.96592">
        <ele>256.33</ele>
        <time>2018-08-10T08:53:41Z</time>
      </trkpt>
      <trkpt lat="49.65379" lon="4.96589">
        <ele>255.85</ele>
        <time>2018-08-10T08:53:56Z</time>
      </trkpt>
      <trkpt lat="49.65377" lon="4.96584">
        <ele>255.85</ele>
        <time>2018-08-10T08:54:00Z</time>
      </trkpt>
      <trkpt lat="49.65369" lon="4.96561">
        <ele>256.33</ele>
        <time>2018-08-10T08:54:15Z</time>
      </trkpt>
      <trkpt lat="49.65355" lon="4.96542">
        <ele>258.73</ele>
        <time>2018-08-10T08:54:32Z</time>
      </trkpt>
      <trkpt lat="49.65343" lon="4.9653">
        <ele>260.17</ele>
        <time>2018-08-10T08:54:46Z</time>
      </trkpt>
      <trkpt lat="49.65342" lon="4.96529">
        <ele>260.17</ele>
        <time>2018-08-10T08:54:47Z</time>
      </trkpt>
      <trkpt lat="49.65326" lon="4.96517">
        <ele>262.58</ele>
        <time>2018-08-10T08:55:03Z</time>
      </trkpt>
      <trkpt lat="49.65309" lon="4.96506">
        <ele>264.98</ele>
        <time>2018-08-10T08:55:19Z</time>
      </trkpt>
      <trkpt lat="49.65294" lon="4.96496">
        <ele>267.86</ele>
        <time>2018-08-10T08:55:36Z</time>
      </trkpt>
      <trkpt lat="49.65275" lon="4.96486">
        <ele>272.67</ele>
        <time>2018-08-10T08:55:54Z</time>
      </trkpt>
      <trkpt lat="49.6526" lon="4.96476">
        <ele>272.67</ele>
        <time>2018-08-10T08:56:08Z</time>
      </trkpt>
      <trkpt lat="49.65247" lon="4.96461">
        <ele>276.04</ele>
        <time>2018-08-10T08:56:23Z</time>
      </trkpt>
      <trkpt lat="49.6524" lon="4.96455">
        <ele>275.56</ele>
        <time>2018-08-10T08:56:36Z</time>
      </trkpt>
      <trkpt lat="49.65232" lon="4.96446">
        <ele>275.56</ele>
        <time>2018-08-10T08:56:48Z</time>
      </trkpt>
      <trkpt lat="49.65218" lon="4.96433">
        <ele>277.48</ele>
        <time>2018-08-10T08:57:03Z</time>
      </trkpt>
      <trkpt lat="49.65204" lon="4.9642">
        <ele>279.88</ele>
        <time>2018-08-10T08:57:19Z</time>
      </trkpt>
      <trkpt lat="49.65189" lon="4.96404">
        <ele>280.84</ele>
        <time>2018-08-10T08:57:34Z</time>
      </trkpt>
      <trkpt lat="49.65172" lon="4.9639">
        <ele>280.84</ele>
        <time>2018-08-10T08:57:51Z</time>
      </trkpt>
      <trkpt lat="49.65155" lon="4.96375">
        <ele>281.32</ele>
        <time>2018-08-10T08:58:07Z</time>
      </trkpt>
      <trkpt lat="49.65138" lon="4.96365">
        <ele>281.8</ele>
        <time>2018-08-10T08:58:24Z</time>
      </trkpt>
      <trkpt lat="49.65119" lon="4.96359">
        <ele>281.32</ele>
        <time>2018-08-10T08:58:40Z</time>
      </trkpt>
      <trkpt lat="49.65114" lon="4.9636">
        <ele>281.32</ele>
        <time>2018-08-10T08:58:46Z</time>
      </trkpt>
      <trkpt lat="49.65109" lon="4.9636">
        <ele>281.8</ele>
        <time>2018-08-10T08:59:00Z</time>
      </trkpt>
      <trkpt lat="49.65105" lon="4.9636">
        <ele>281.8</ele>
        <time>2018-08-10T08:59:16Z</time>
      </trkpt>
      <trkpt lat="49.6509" lon="4.96368">
        <ele>285.17</ele>
        <time>2018-08-10T08:59:31Z</time>
      </trkpt>
      <trkpt lat="49.65074" lon="4.96378">
        <ele>285.65</ele>
        <time>2018-08-10T08:59:47Z</time>
      </trkpt>
      <trkpt lat="49.65071" lon="4.9638">
        <ele>285.17</ele>
        <time>2018-08-10T08:59:50Z</time>
      </trkpt>
      <trkpt lat="49.65055" lon="4.96393">
        <ele>282.77</ele>
        <time>2018-08-10T09:00:06Z</time>
      </trkpt>
      <trkpt lat="49.65053" lon="4.96395">
        <ele>282.77</ele>
        <time>2018-08-10T09:00:08Z</time>
      </trkpt>
      <trkpt lat="49.65048" lon="4.96398">
        <ele>283.25</ele>
        <time>2018-08-10T09:00:12Z</time>
      </trkpt>
      <trkpt lat="49.65032" lon="4.9641">
        <ele>285.65</ele>
        <time>2018-08-10T09:00:28Z</time>
      </trkpt>
      <trkpt lat="49.65013" lon="4.96426">
        <ele>286.13</ele>
        <time>2018-08-10T09:00:47Z</time>
      </trkpt>
      <trkpt lat="49.65005" lon="4.9643">
        <ele>286.13</ele>
        <time>2018-08-10T09:00:55Z</time>
      </trkpt>
      <trkpt lat="49.64993" lon="4.96444">
        <ele>289.49</ele>
        <time>2018-08-10T09:01:09Z</time>
      </trkpt>
      <trkpt lat="49.64983" lon="4.96456">
        <ele>291.42</ele>
        <time>2018-08-10T09:01:21Z</time>
      </trkpt>
      <trkpt lat="49.64969" lon="4.9647">
        <ele>291.42</ele>
        <time>2018-08-10T09:01:39Z</time>
      </trkpt>
      <trkpt lat="49.64958" lon="4.96485">
        <ele>287.09</ele>
        <time>2018-08-10T09:01:54Z</time>
      </trkpt>
      <trkpt lat="49.64949" lon="4.96495">
        <ele>284.69</ele>
        <time>2018-08-10T09:02:02Z</time>
      </trkpt>
      <trkpt lat="49.64946" lon="4.96502">
        <ele>284.21</ele>
        <time>2018-08-10T09:02:06Z</time>
      </trkpt>
      <trkpt lat="49.64944" lon="4.96507">
        <ele>284.21</ele>
        <time>2018-08-10T09:02:09Z</time>
      </trkpt>
      <trkpt lat="49.64932" lon="4.96524">
        <ele>285.17</ele>
        <time>2018-08-10T09:02:24Z</time>
      </trkpt>
      <trkpt lat="49.64914" lon="4.96537">
        <ele>283.73</ele>
        <time>2018-08-10T09:02:42Z</time>
      </trkpt>
      <trkpt lat="49.64899" lon="4.96545">
        <ele>282.28</ele>
        <time>2018-08-10T09:02:59Z</time>
      </trkpt>
      <trkpt lat="49.64886" lon="4.96555">
        <ele>281.8</ele>
        <time>2018-08-10T09:03:13Z</time>
      </trkpt>
      <trkpt lat="49.64874" lon="4.9657">
        <ele>281.32</ele>
        <time>2018-08-10T09:03:28Z</time>
      </trkpt>
      <trkpt lat="49.64859" lon="4.96578">
        <ele>279.88</ele>
        <time>2018-08-10T09:03:46Z</time>
      </trkpt>
      <trkpt lat="49.64854" lon="4.9658">
        <ele>279.88</ele>
        <time>2018-08-10T09:03:51Z</time>
      </trkpt>
      <trkpt lat="49.64834" lon="4.96589">
        <ele>276.52</ele>
        <time>2018-08-10T09:04:09Z</time>
      </trkpt>
      <trkpt lat="49.64823" lon="4.96593">
        <ele>274.11</ele>
        <time>2018-08-10T09:04:26Z</time>
      </trkpt>
      <trkpt lat="49.64807" lon="4.96601">
        <ele>272.19</ele>
        <time>2018-08-10T09:04:41Z</time>
      </trkpt>
      <trkpt lat="49.64791" lon="4.96608">
        <ele>270.27</ele>
        <time>2018-08-10T09:04:57Z</time>
      </trkpt>
      <trkpt lat="49.64778" lon="4.96615">
        <ele>268.83</ele>
        <time>2018-08-10T09:05:08Z</time>
      </trkpt>
      <trkpt lat="49.64761" lon="4.96624">
        <ele>266.9</ele>
        <time>2018-08-10T09:05:28Z</time>
      </trkpt>
      <trkpt lat="49.64745" lon="4.96631">
        <ele>267.38</ele>
        <time>2018-08-10T09:05:43Z</time>
      </trkpt>
      <trkpt lat="49.64734" lon="4.96635">
        <ele>264.98</ele>
        <time>2018-08-10T09:05:55Z</time>
      </trkpt>
      <trkpt lat="49.64718" lon="4.96645">
        <ele>262.1</ele>
        <time>2018-08-10T09:06:14Z</time>
      </trkpt>
      <trkpt lat="49.64717" lon="4.96645">
        <ele>262.1</ele>
        <time>2018-08-10T09:06:17Z</time>
      </trkpt>
      <trkpt lat="49.64704" lon="4.96652">
        <ele>261.62</ele>
        <time>2018-08-10T09:06:33Z</time>
      </trkpt>
      <trkpt lat="49.64699" lon="4.96653">
        <ele>261.62</ele>
        <time>2018-08-10T09:06:39Z</time>
      </trkpt>
      <trkpt lat="49.6469" lon="4.96655">
        <ele>261.14</ele>
        <time>2018-08-10T09:06:47Z</time>
      </trkpt>
      <trkpt lat="49.64676" lon="4.96659">
        <ele>260.65</ele>
        <time>2018-08-10T09:07:01Z</time>
      </trkpt>
      <trkpt lat="49.64664" lon="4.96666">
        <ele>260.65</ele>
        <time>2018-08-10T09:07:15Z</time>
      </trkpt>
      <trkpt lat="49.64663" lon="4.9667">
        <ele>261.14</ele>
        <time>2018-08-10T09:07:21Z</time>
      </trkpt>
      <trkpt lat="49.64664" lon="4.96695">
        <ele>260.65</ele>
        <time>2018-08-10T09:07:33Z</time>
      </trkpt>
      <trkpt lat="49.64666" lon="4.96705">
        <ele>260.65</ele>
        <time>2018-08-10T09:07:39Z</time>
      </trkpt>
      <trkpt lat="49.64671" lon="4.96729">
        <ele>258.73</ele>
        <time>2018-08-10T09:07:54Z</time>
      </trkpt>
      <trkpt lat="49.64674" lon="4.96753">
        <ele>258.73</ele>
        <time>2018-08-10T09:08:06Z</time>
      </trkpt>
      <trkpt lat="49.64679" lon="4.96775">
        <ele>257.77</ele>
        <time>2018-08-10T09:08:21Z</time>
      </trkpt>
      <trkpt lat="49.64681" lon="4.96787">
        <ele>257.29</ele>
        <time>2018-08-10T09:08:27Z</time>
      </trkpt>
      <trkpt lat="49.64687" lon="4.96812">
        <ele>254.89</ele>
        <time>2018-08-10T09:08:42Z</time>
      </trkpt>
      <trkpt lat="49.64691" lon="4.96825">
        <ele>254.89</ele>
        <time>2018-08-10T09:08:50Z</time>
      </trkpt>
      <trkpt lat="49.64694" lon="4.96845">
        <ele>253.44</ele>
        <time>2018-08-10T09:09:02Z</time>
      </trkpt>
      <trkpt lat="49.64702" lon="4.9687">
        <ele>253.44</ele>
        <time>2018-08-10T09:09:17Z</time>
      </trkpt>
      <trkpt lat="49.6471" lon="4.96897">
        <ele>253.93</ele>
        <time>2018-08-10T09:09:34Z</time>
      </trkpt>
      <trkpt lat="49.64714" lon="4.96922">
        <ele>257.29</ele>
        <time>2018-08-10T09:09:50Z</time>
      </trkpt>
      <trkpt lat="49.64721" lon="4.96942">
        <ele>257.77</ele>
        <time>2018-08-10T09:10:04Z</time>
      </trkpt>
      <trkpt lat="49.64728" lon="4.96964">
        <ele>256.33</ele>
        <time>2018-08-10T09:10:17Z</time>
      </trkpt>
      <trkpt lat="49.64735" lon="4.96989">
        <ele>257.29</ele>
        <time>2018-08-10T09:10:34Z</time>
      </trkpt>
      <trkpt lat="49.64738" lon="4.97018">
        <ele>255.85</ele>
        <time>2018-08-10T09:10:51Z</time>
      </trkpt>
      <trkpt lat="49.64743" lon="4.97049">
        <ele>254.89</ele>
        <time>2018-08-10T09:11:10Z</time>
      </trkpt>
      <trkpt lat="49.64745" lon="4.97067">
        <ele>252.96</ele>
        <time>2018-08-10T09:11:23Z</time>
      </trkpt>
      <trkpt lat="49.64745" lon="4.97092">
        <ele>251.04</ele>
        <time>2018-08-10T09:11:40Z</time>
      </trkpt>
      <trkpt lat="49.64742" lon="4.97113">
        <ele>249.6</ele>
        <time>2018-08-10T09:11:54Z</time>
      </trkpt>
      <trkpt lat="49.64741" lon="4.97144">
        <ele>249.12</ele>
        <time>2018-08-10T09:12:13Z</time>
      </trkpt>
      <trkpt lat="49.64739" lon="4.97171">
        <ele>246.72</ele>
        <time>2018-08-10T09:12:28Z</time>
      </trkpt>
      <trkpt lat="49.64739" lon="4.97181">
        <ele>246.23</ele>
        <time>2018-08-10T09:12:36Z</time>
      </trkpt>
      <trkpt lat="49.64736" lon="4.97211">
        <ele>244.79</ele>
        <time>2018-08-10T09:12:55Z</time>
      </trkpt>
      <trkpt lat="49.64736" lon="4.97218">
        <ele>244.31</ele>
        <time>2018-08-10T09:13:00Z</time>
      </trkpt>
      <trkpt lat="49.64735" lon="4.97235">
        <ele>243.35</ele>
        <time>2018-08-10T09:13:16Z</time>
      </trkpt>
      <trkpt lat="49.64735" lon="4.97235">
        <ele>243.83</ele>
        <time>2018-08-10T09:13:30Z</time>
      </trkpt>
      <trkpt lat="49.64735" lon="4.97235">
        <ele>243.35</ele>
        <time>2018-08-10T09:13:46Z</time>
      </trkpt>
      <trkpt lat="49.64737" lon="4.97238">
        <ele>242.87</ele>
        <time>2018-08-10T09:14:01Z</time>
      </trkpt>
      <trkpt lat="49.64742" lon="4.97246">
        <ele>242.39</ele>
        <time>2018-08-10T09:14:10Z</time>
      </trkpt>
      <trkpt lat="49.64747" lon="4.97253">
        <ele>241.43</ele>
        <time>2018-08-10T09:14:16Z</time>
      </trkpt>
      <trkpt lat="49.64761" lon="4.97273">
        <ele>239.99</ele>
        <time>2018-08-10T09:14:34Z</time>
      </trkpt>
      <trkpt lat="49.64776" lon="4.97291">
        <ele>239.51</ele>
        <time>2018-08-10T09:14:51Z</time>
      </trkpt>
      <trkpt lat="49.64791" lon="4.97307">
        <ele>238.54</ele>
        <time>2018-08-10T09:15:09Z</time>
      </trkpt>
      <trkpt lat="49.64808" lon="4.97324">
        <ele>236.14</ele>
        <time>2018-08-10T09:15:26Z</time>
      </trkpt>
      <trkpt lat="49.64823" lon="4.97336">
        <ele>234.7</ele>
        <time>2018-08-10T09:15:42Z</time>
      </trkpt>
      <trkpt lat="49.6484" lon="4.97354">
        <ele>234.22</ele>
        <time>2018-08-10T09:16:00Z</time>
      </trkpt>
      <trkpt lat="49.64858" lon="4.97372">
        <ele>232.78</ele>
        <time>2018-08-10T09:16:21Z</time>
      </trkpt>
      <trkpt lat="49.64873" lon="4.97389">
        <ele>231.33</ele>
        <time>2018-08-10T09:16:38Z</time>
      </trkpt>
      <trkpt lat="49.64889" lon="4.97405">
        <ele>229.41</ele>
        <time>2018-08-10T09:16:55Z</time>
      </trkpt>
      <trkpt lat="49.64903" lon="4.97423">
        <ele>228.93</ele>
        <time>2018-08-10T09:17:12Z</time>
      </trkpt>
      <trkpt lat="49.64915" lon="4.97446">
        <ele>227.01</ele>
        <time>2018-08-10T09:17:31Z</time>
      </trkpt>
      <trkpt lat="49.64923" lon="4.97464">
        <ele>225.57</ele>
        <time>2018-08-10T09:17:44Z</time>
      </trkpt>
      <trkpt lat="49.64925" lon="4.97471">
        <ele>225.09</ele>
        <time>2018-08-10T09:17:48Z</time>
      </trkpt>
      <trkpt lat="49.64936" lon="4.97486">
        <ele>225.57</ele>
        <time>2018-08-10T09:18:03Z</time>
      </trkpt>
      <trkpt lat="49.64944" lon="4.97507">
        <ele>224.12</ele>
        <time>2018-08-10T09:18:20Z</time>
      </trkpt>
      <trkpt lat="49.64949" lon="4.97534">
        <ele>224.12</ele>
        <time>2018-08-10T09:18:38Z</time>
      </trkpt>
      <trkpt lat="49.6495" lon="4.97538">
        <ele>223.64</ele>
        <time>2018-08-10T09:18:41Z</time>
      </trkpt>
      <trkpt lat="49.64949" lon="4.97564">
        <ele>222.2</ele>
        <time>2018-08-10T09:18:56Z</time>
      </trkpt>
      <trkpt lat="49.64948" lon="4.97584">
        <ele>222.2</ele>
        <time>2018-08-10T09:19:12Z</time>
      </trkpt>
      <trkpt lat="49.64939" lon="4.97615">
        <ele>220.28</ele>
        <time>2018-08-10T09:19:32Z</time>
      </trkpt>
      <trkpt lat="49.64937" lon="4.97622">
        <ele>219.8</ele>
        <time>2018-08-10T09:19:37Z</time>
      </trkpt>
      <trkpt lat="49.64933" lon="4.9763">
        <ele>219.32</ele>
        <time>2018-08-10T09:19:43Z</time>
      </trkpt>
      <trkpt lat="49.64927" lon="4.97652">
        <ele>216.43</ele>
        <time>2018-08-10T09:20:00Z</time>
      </trkpt>
      <trkpt lat="49.64921" lon="4.97672">
        <ele>213.55</ele>
        <time>2018-08-10T09:20:15Z</time>
      </trkpt>
      <trkpt lat="49.64915" lon="4.97681">
        <ele>212.59</ele>
        <time>2018-08-10T09:20:23Z</time>
      </trkpt>
      <trkpt lat="49.64913" lon="4.97689">
        <ele>212.11</ele>
        <time>2018-08-10T09:20:28Z</time>
      </trkpt>
      <trkpt lat="49.64911" lon="4.97701">
        <ele>210.67</ele>
        <time>2018-08-10T09:20:37Z</time>
      </trkpt>
      <trkpt lat="49.64901" lon="4.97731">
        <ele>209.7</ele>
        <time>2018-08-10T09:20:56Z</time>
      </trkpt>
      <trkpt lat="49.64899" lon="4.97756">
        <ele>207.78</ele>
        <time>2018-08-10T09:21:13Z</time>
      </trkpt>
      <trkpt lat="49.64898" lon="4.97763">
        <ele>207.3</ele>
        <time>2018-08-10T09:21:17Z</time>
      </trkpt>
      <trkpt lat="49.64902" lon="4.97791">
        <ele>204.9</ele>
        <time>2018-08-10T09:21:35Z</time>
      </trkpt>
      <trkpt lat="49.64901" lon="4.9782">
        <ele>204.42</ele>
        <time>2018-08-10T09:21:53Z</time>
      </trkpt>
      <trkpt lat="49.64902" lon="4.97831">
        <ele>203.46</ele>
        <time>2018-08-10T09:22:00Z</time>
      </trkpt>
      <trkpt lat="49.64901" lon="4.97848">
        <ele>203.46</ele>
        <time>2018-08-10T09:22:10Z</time>
      </trkpt>
      <trkpt lat="49.64901" lon="4.97875">
        <ele>202.49</ele>
        <time>2018-08-10T09:22:27Z</time>
      </trkpt>
      <trkpt lat="49.64903" lon="4.97908">
        <ele>201.05</ele>
        <time>2018-08-10T09:22:48Z</time>
      </trkpt>
      <trkpt lat="49.64909" lon="4.97939">
        <ele>199.13</ele>
        <time>2018-08-10T09:23:08Z</time>
      </trkpt>
      <trkpt lat="49.64916" lon="4.97966">
        <ele>196.73</ele>
        <time>2018-08-10T09:23:25Z</time>
      </trkpt>
      <trkpt lat="49.64924" lon="4.97995">
        <ele>195.77</ele>
        <time>2018-08-10T09:23:45Z</time>
      </trkpt>
      <trkpt lat="49.6493" lon="4.98022">
        <ele>195.77</ele>
        <time>2018-08-10T09:24:02Z</time>
      </trkpt>
      <trkpt lat="49.6494" lon="4.98052">
        <ele>192.4</ele>
        <time>2018-08-10T09:24:23Z</time>
      </trkpt>
      <trkpt lat="49.64947" lon="4.98084">
        <ele>189.04</ele>
        <time>2018-08-10T09:24:43Z</time>
      </trkpt>
      <trkpt lat="49.64952" lon="4.98112">
        <ele>186.63</ele>
        <time>2018-08-10T09:25:01Z</time>
      </trkpt>
      <trkpt lat="49.64956" lon="4.98136">
        <ele>185.67</ele>
        <time>2018-08-10T09:25:17Z</time>
      </trkpt>
      <trkpt lat="49.64958" lon="4.98163">
        <ele>184.71</ele>
        <time>2018-08-10T09:25:34Z</time>
      </trkpt>
      <trkpt lat="49.64959" lon="4.9819">
        <ele>182.79</ele>
        <time>2018-08-10T09:25:50Z</time>
      </trkpt>
      <trkpt lat="49.64962" lon="4.98216">
        <ele>181.35</ele>
        <time>2018-08-10T09:26:07Z</time>
      </trkpt>
      <trkpt lat="49.64963" lon="4.98238">
        <ele>179.42</ele>
        <time>2018-08-10T09:26:22Z</time>
      </trkpt>
      <trkpt lat="49.64957" lon="4.98272">
        <ele>177.5</ele>
        <time>2018-08-10T09:26:41Z</time>
      </trkpt>
      <trkpt lat="49.64949" lon="4.98302">
        <ele>176.54</ele>
        <time>2018-08-10T09:27:00Z</time>
      </trkpt>
      <trkpt lat="49.64948" lon="4.98307">
        <ele>176.54</ele>
        <time>2018-08-10T09:27:04Z</time>
      </trkpt>
      <trkpt lat="49.64942" lon="4.98318">
        <ele>176.54</ele>
        <time>2018-08-10T09:27:11Z</time>
      </trkpt>
      <trkpt lat="49.64941" lon="4.98327">
        <ele>176.54</ele>
        <time>2018-08-10T09:27:16Z</time>
      </trkpt>
      <trkpt lat="49.64932" lon="4.98361">
        <ele>175.58</ele>
        <time>2018-08-10T09:27:38Z</time>
      </trkpt>
      <trkpt lat="49.64925" lon="4.98391">
        <ele>173.66</ele>
        <time>2018-08-10T09:27:57Z</time>
      </trkpt>
      <trkpt lat="49.64922" lon="4.98396">
        <ele>173.66</ele>
        <time>2018-08-10T09:28:01Z</time>
      </trkpt>
      <trkpt lat="49.64915" lon="4.98418">
        <ele>170.29</ele>
        <time>2018-08-10T09:28:17Z</time>
      </trkpt>
      <trkpt lat="49.64913" lon="4.98421">
        <ele>169.81</ele>
        <time>2018-08-10T09:28:20Z</time>
      </trkpt>
      <trkpt lat="49.64898" lon="4.98449">
        <ele>168.85</ele>
        <time>2018-08-10T09:28:39Z</time>
      </trkpt>
      <trkpt lat="49.64892" lon="4.98471">
        <ele>166.45</ele>
        <time>2018-08-10T09:28:53Z</time>
      </trkpt>
      <trkpt lat="49.64888" lon="4.98499">
        <ele>164.04</ele>
        <time>2018-08-10T09:29:11Z</time>
      </trkpt>
      <trkpt lat="49.64886" lon="4.98528">
        <ele>164.04</ele>
        <time>2018-08-10T09:29:29Z</time>
      </trkpt>
      <trkpt lat="49.6488" lon="4.98561">
        <ele>161.16</ele>
        <time>2018-08-10T09:29:49Z</time>
      </trkpt>
      <trkpt lat="49.6488" lon="4.98593">
        <ele>156.83</ele>
        <time>2018-08-10T09:30:08Z</time>
      </trkpt>
      <trkpt lat="49.64889" lon="4.9862">
        <ele>157.31</ele>
        <time>2018-08-10T09:30:26Z</time>
      </trkpt>
      <trkpt lat="49.649" lon="4.98644">
        <ele>155.39</ele>
        <time>2018-08-10T09:30:44Z</time>
      </trkpt>
      <trkpt lat="49.64909" lon="4.98655">
        <ele>155.39</ele>
        <time>2018-08-10T09:30:57Z</time>
      </trkpt>
      <trkpt lat="49.64919" lon="4.98667">
        <ele>156.35</ele>
        <time>2018-08-10T09:31:14Z</time>
      </trkpt>
      <trkpt lat="49.64916" lon="4.98672">
        <ele>157.79</ele>
        <time>2018-08-10T09:31:28Z</time>
      </trkpt>
      <trkpt lat="49.64915" lon="4.98672">
        <ele>157.79</ele>
        <time>2018-08-10T09:31:29Z</time>
      </trkpt>
      <trkpt lat="49.64905" lon="4.98672">
        <ele>157.79</ele>
        <time>2018-08-10T09:31:41Z</time>
      </trkpt>
      <trkpt lat="49.64901" lon="4.98669">
        <ele>157.31</ele>
        <time>2018-08-10T09:31:45Z</time>
      </trkpt>
      <trkpt lat="49.64888" lon="4.98661">
        <ele>156.83</ele>
        <time>2018-08-10T09:31:58Z</time>
      </trkpt>
      <trkpt lat="49.64872" lon="4.98645">
        <ele>154.91</ele>
        <time>2018-08-10T09:32:15Z</time>
      </trkpt>
      <trkpt lat="49.64855" lon="4.98632">
        <ele>155.39</ele>
        <time>2018-08-10T09:32:31Z</time>
      </trkpt>
      <trkpt lat="49.64833" lon="4.98618">
        <ele>155.39</ele>
        <time>2018-08-10T09:32:51Z</time>
      </trkpt>
      <trkpt lat="49.64809" lon="4.98603">
        <ele>156.83</ele>
        <time>2018-08-10T09:33:12Z</time>
      </trkpt>
      <trkpt lat="49.64791" lon="4.98592">
        <ele>157.31</ele>
        <time>2018-08-10T09:33:30Z</time>
      </trkpt>
      <trkpt lat="49.64776" lon="4.98586">
        <ele>158.75</ele>
        <time>2018-08-10T09:33:44Z</time>
      </trkpt>
      <trkpt lat="49.64766" lon="4.98579">
        <ele>160.2</ele>
        <time>2018-08-10T09:33:53Z</time>
      </trkpt>
      <trkpt lat="49.64761" lon="4.98577">
        <ele>160.68</ele>
        <time>2018-08-10T09:33:57Z</time>
      </trkpt>
      <trkpt lat="49.6474" lon="4.98568">
        <ele>161.64</ele>
        <time>2018-08-10T09:34:16Z</time>
      </trkpt>
      <trkpt lat="49.64716" lon="4.98555">
        <ele>163.08</ele>
        <time>2018-08-10T09:34:38Z</time>
      </trkpt>
      <trkpt lat="49.64693" lon="4.98541">
        <ele>163.08</ele>
        <time>2018-08-10T09:34:57Z</time>
      </trkpt>
      <trkpt lat="49.64668" lon="4.98526">
        <ele>163.08</ele>
        <time>2018-08-10T09:35:20Z</time>
      </trkpt>
      <trkpt lat="49.64646" lon="4.98514">
        <ele>160.68</ele>
        <time>2018-08-10T09:35:41Z</time>
      </trkpt>
      <trkpt lat="49.64621" lon="4.98498">
        <ele>161.16</ele>
        <time>2018-08-10T09:36:03Z</time>
      </trkpt>
      <trkpt lat="49.64599" lon="4.98487">
        <ele>158.27</ele>
        <time>2018-08-10T09:36:23Z</time>
      </trkpt>
      <trkpt lat="49.64579" lon="4.98479">
        <ele>160.68</ele>
        <time>2018-08-10T09:36:39Z</time>
      </trkpt>
      <trkpt lat="49.64561" lon="4.98467">
        <ele>162.6</ele>
        <time>2018-08-10T09:36:55Z</time>
      </trkpt>
      <trkpt lat="49.64538" lon="4.98458">
        <ele>164.04</ele>
        <time>2018-08-10T09:37:12Z</time>
      </trkpt>
      <trkpt lat="49.64516" lon="4.98444">
        <ele>161.16</ele>
        <time>2018-08-10T09:37:33Z</time>
      </trkpt>
      <trkpt lat="49.64494" lon="4.98431">
        <ele>164.04</ele>
        <time>2018-08-10T09:37:54Z</time>
      </trkpt>
      <trkpt lat="49.64471" lon="4.98414">
        <ele>167.41</ele>
        <time>2018-08-10T09:38:14Z</time>
      </trkpt>
      <trkpt lat="49.64448" lon="4.98401">
        <ele>167.89</ele>
        <time>2018-08-10T09:38:34Z</time>
      </trkpt>
      <trkpt lat="49.64425" lon="4.98386">
        <ele>163.56</ele>
        <time>2018-08-10T09:38:55Z</time>
      </trkpt>
      <trkpt lat="49.64412" lon="4.98375">
        <ele>162.12</ele>
        <time>2018-08-10T09:39:07Z</time>
      </trkpt>
      <trkpt lat="49.64408" lon="4.98372">
        <ele>161.64</ele>
        <time>2018-08-10T09:39:11Z</time>
      </trkpt>
      <trkpt lat="49.64384" lon="4.98356">
        <ele>159.72</ele>
        <time>2018-08-10T09:39:30Z</time>
      </trkpt>
      <trkpt lat="49.64382" lon="4.98355">
        <ele>159.72</ele>
        <time>2018-08-10T09:39:32Z</time>
      </trkpt>
      <trkpt lat="49.64362" lon="4.98343">
        <ele>159.24</ele>
        <time>2018-08-10T09:39:52Z</time>
      </trkpt>
      <trkpt lat="49.64337" lon="4.98318">
        <ele>158.27</ele>
        <time>2018-08-10T09:40:14Z</time>
      </trkpt>
      <trkpt lat="49.6432" lon="4.98302">
        <ele>158.27</ele>
        <time>2018-08-10T09:40:30Z</time>
      </trkpt>
      <trkpt lat="49.64308" lon="4.98298">
        <ele>159.24</ele>
        <time>2018-08-10T09:40:48Z</time>
      </trkpt>
      <trkpt lat="49.64307" lon="4.983">
        <ele>160.68</ele>
        <time>2018-08-10T09:41:12Z</time>
      </trkpt>
      <trkpt lat="49.64307" lon="4.983">
        <ele>160.68</ele>
        <time>2018-08-10T09:41:31Z</time>
      </trkpt>
      <trkpt lat="49.64307" lon="4.98298">
        <ele>160.2</ele>
        <time>2018-08-10T09:41:55Z</time>
      </trkpt>
      <trkpt lat="49.64307" lon="4.98298">
        <ele>161.16</ele>
        <time>2018-08-10T09:42:21Z</time>
      </trkpt>
      <trkpt lat="49.64307" lon="4.98298">
        <ele>161.64</ele>
        <time>2018-08-10T09:42:47Z</time>
      </trkpt>
      <trkpt lat="49.64306" lon="4.98298">
        <ele>161.64</ele>
        <time>2018-08-10T09:43:10Z</time>
      </trkpt>
      <trkpt lat="49.64301" lon="4.98296">
        <ele>163.08</ele>
        <time>2018-08-10T09:43:27Z</time>
      </trkpt>
      <trkpt lat="49.64283" lon="4.98281">
        <ele>167.89</ele>
        <time>2018-08-10T09:43:44Z</time>
      </trkpt>
      <trkpt lat="49.64278" lon="4.98277">
        <ele>168.37</ele>
        <time>2018-08-10T09:43:48Z</time>
      </trkpt>
      <trkpt lat="49.64263" lon="4.98253">
        <ele>166.45</ele>
        <time>2018-08-10T09:44:04Z</time>
      </trkpt>
      <trkpt lat="49.64253" lon="4.98241">
        <ele>163.56</ele>
        <time>2018-08-10T09:44:13Z</time>
      </trkpt>
      <trkpt lat="49.64231" lon="4.98222">
        <ele>159.24</ele>
        <time>2018-08-10T09:44:30Z</time>
      </trkpt>
      <trkpt lat="49.64212" lon="4.98205">
        <ele>156.83</ele>
        <time>2018-08-10T09:44:47Z</time>
      </trkpt>
      <trkpt lat="49.64208" lon="4.98202">
        <ele>155.87</ele>
        <time>2018-08-10T09:44:50Z</time>
      </trkpt>
      <trkpt lat="49.64187" lon="4.98177">
        <ele>158.27</ele>
        <time>2018-08-10T09:45:11Z</time>
      </trkpt>
      <trkpt lat="49.64172" lon="4.98167">
        <ele>161.64</ele>
        <time>2018-08-10T09:45:26Z</time>
      </trkpt>
      <trkpt lat="49.64153" lon="4.98153">
        <ele>165</ele>
        <time>2018-08-10T09:45:44Z</time>
      </trkpt>
      <trkpt lat="49.64137" lon="4.98132">
        <ele>165</ele>
        <time>2018-08-10T09:46:05Z</time>
      </trkpt>
      <trkpt lat="49.6412" lon="4.98115">
        <ele>161.16</ele>
        <time>2018-08-10T09:46:21Z</time>
      </trkpt>
      <trkpt lat="49.64102" lon="4.981">
        <ele>158.27</ele>
        <time>2018-08-10T09:46:37Z</time>
      </trkpt>
      <trkpt lat="49.64087" lon="4.98086">
        <ele>158.27</ele>
        <time>2018-08-10T09:46:51Z</time>
      </trkpt>
      <trkpt lat="49.64074" lon="4.98071">
        <ele>158.27</ele>
        <time>2018-08-10T09:47:08Z</time>
      </trkpt>
      <trkpt lat="49.64057" lon="4.98056">
        <ele>158.27</ele>
        <time>2018-08-10T09:47:26Z</time>
      </trkpt>
      <trkpt lat="49.64041" lon="4.98039">
        <ele>157.31</ele>
        <time>2018-08-10T09:47:43Z</time>
      </trkpt>
      <trkpt lat="49.64021" lon="4.98022">
        <ele>154.43</ele>
        <time>2018-08-10T09:48:00Z</time>
      </trkpt>
      <trkpt lat="49.64005" lon="4.98005">
        <ele>152.99</ele>
        <time>2018-08-10T09:48:18Z</time>
      </trkpt>
      <trkpt lat="49.63985" lon="4.9799">
        <ele>152.03</ele>
        <time>2018-08-10T09:48:34Z</time>
      </trkpt>
      <trkpt lat="49.63969" lon="4.97975">
        <ele>151.06</ele>
        <time>2018-08-10T09:48:50Z</time>
      </trkpt>
      <trkpt lat="49.63951" lon="4.97961">
        <ele>153.47</ele>
        <time>2018-08-10T09:49:06Z</time>
      </trkpt>
      <trkpt lat="49.6395" lon="4.97958">
        <ele>153.95</ele>
        <time>2018-08-10T09:49:07Z</time>
      </trkpt>
      <trkpt lat="49.63934" lon="4.97944">
        <ele>156.83</ele>
        <time>2018-08-10T09:49:24Z</time>
      </trkpt>
      <trkpt lat="49.6392" lon="4.97927">
        <ele>156.35</ele>
        <time>2018-08-10T09:49:42Z</time>
      </trkpt>
      <trkpt lat="49.639" lon="4.97907">
        <ele>154.91</ele>
        <time>2018-08-10T09:50:02Z</time>
      </trkpt>
      <trkpt lat="49.63885" lon="4.97892">
        <ele>155.87</ele>
        <time>2018-08-10T09:50:19Z</time>
      </trkpt>
      <trkpt lat="49.63867" lon="4.97876">
        <ele>153.47</ele>
        <time>2018-08-10T09:50:35Z</time>
      </trkpt>
      <trkpt lat="49.6385" lon="4.97859">
        <ele>152.99</ele>
        <time>2018-08-10T09:50:51Z</time>
      </trkpt>
      <trkpt lat="49.63828" lon="4.97845">
        <ele>151.54</ele>
        <time>2018-08-10T09:51:10Z</time>
      </trkpt>
      <trkpt lat="49.63819" lon="4.97832">
        <ele>154.43</ele>
        <time>2018-08-10T09:51:21Z</time>
      </trkpt>
      <trkpt lat="49.6381" lon="4.9782">
        <ele>156.83</ele>
        <time>2018-08-10T09:51:31Z</time>
      </trkpt>
      <trkpt lat="49.63792" lon="4.97798">
        <ele>159.24</ele>
        <time>2018-08-10T09:51:48Z</time>
      </trkpt>
      <trkpt lat="49.63776" lon="4.9779">
        <ele>157.79</ele>
        <time>2018-08-10T09:52:02Z</time>
      </trkpt>
      <trkpt lat="49.63763" lon="4.9778">
        <ele>158.75</ele>
        <time>2018-08-10T09:52:17Z</time>
      </trkpt>
      <trkpt lat="49.63747" lon="4.97769">
        <ele>159.24</ele>
        <time>2018-08-10T09:52:34Z</time>
      </trkpt>
      <trkpt lat="49.6373" lon="4.97759">
        <ele>160.68</ele>
        <time>2018-08-10T09:52:50Z</time>
      </trkpt>
      <trkpt lat="49.63722" lon="4.9776">
        <ele>162.12</ele>
        <time>2018-08-10T09:52:55Z</time>
      </trkpt>
      <trkpt lat="49.63709" lon="4.97748">
        <ele>163.56</ele>
        <time>2018-08-10T09:53:09Z</time>
      </trkpt>
      <trkpt lat="49.63691" lon="4.97737">
        <ele>163.56</ele>
        <time>2018-08-10T09:53:27Z</time>
      </trkpt>
      <trkpt lat="49.6367" lon="4.97718">
        <ele>162.6</ele>
        <time>2018-08-10T09:53:45Z</time>
      </trkpt>
      <trkpt lat="49.63654" lon="4.97703">
        <ele>163.56</ele>
        <time>2018-08-10T09:54:02Z</time>
      </trkpt>
      <trkpt lat="49.63633" lon="4.97683">
        <ele>166.45</ele>
        <time>2018-08-10T09:54:22Z</time>
      </trkpt>
      <trkpt lat="49.63628" lon="4.9768">
        <ele>166.45</ele>
        <time>2018-08-10T09:54:36Z</time>
      </trkpt>
      <trkpt lat="49.63627" lon="4.9768">
        <ele>166.45</ele>
        <time>2018-08-10T09:54:54Z</time>
      </trkpt>
      <trkpt lat="49.63626" lon="4.9768">
        <ele>166.45</ele>
        <time>2018-08-10T09:55:20Z</time>
      </trkpt>
      <trkpt lat="49.63622" lon="4.97675">
        <ele>167.89</ele>
        <time>2018-08-10T09:55:37Z</time>
      </trkpt>
      <trkpt lat="49.63603" lon="4.97666">
        <ele>173.17</ele>
        <time>2018-08-10T09:55:54Z</time>
      </trkpt>
      <trkpt lat="49.636" lon="4.97667">
        <ele>174.62</ele>
        <time>2018-08-10T09:55:58Z</time>
      </trkpt>
      <trkpt lat="49.6359" lon="4.97672">
        <ele>176.54</ele>
        <time>2018-08-10T09:56:06Z</time>
      </trkpt>
      <trkpt lat="49.63574" lon="4.9769">
        <ele>174.14</ele>
        <time>2018-08-10T09:56:23Z</time>
      </trkpt>
      <trkpt lat="49.6356" lon="4.97706">
        <ele>171.25</ele>
        <time>2018-08-10T09:56:39Z</time>
      </trkpt>
      <trkpt lat="49.6355" lon="4.97716">
        <ele>173.17</ele>
        <time>2018-08-10T09:56:55Z</time>
      </trkpt>
      <trkpt lat="49.63549" lon="4.97718">
        <ele>172.21</ele>
        <time>2018-08-10T09:57:18Z</time>
      </trkpt>
      <trkpt lat="49.63539" lon="4.97737">
        <ele>174.62</ele>
        <time>2018-08-10T09:57:33Z</time>
      </trkpt>
      <trkpt lat="49.63529" lon="4.97763">
        <ele>174.62</ele>
        <time>2018-08-10T09:57:50Z</time>
      </trkpt>
      <trkpt lat="49.63511" lon="4.97788">
        <ele>171.73</ele>
        <time>2018-08-10T09:58:11Z</time>
      </trkpt>
      <trkpt lat="49.63491" lon="4.97816">
        <ele>170.77</ele>
        <time>2018-08-10T09:58:37Z</time>
      </trkpt>
      <trkpt lat="49.63477" lon="4.97833">
        <ele>172.21</ele>
        <time>2018-08-10T09:58:51Z</time>
      </trkpt>
      <trkpt lat="49.63475" lon="4.97838">
        <ele>173.17</ele>
        <time>2018-08-10T09:58:55Z</time>
      </trkpt>
      <trkpt lat="49.63462" lon="4.97858">
        <ele>177.02</ele>
        <time>2018-08-10T09:59:12Z</time>
      </trkpt>
      <trkpt lat="49.6345" lon="4.97876">
        <ele>179.42</ele>
        <time>2018-08-10T09:59:28Z</time>
      </trkpt>
      <trkpt lat="49.63443" lon="4.97888">
        <ele>179.9</ele>
        <time>2018-08-10T09:59:40Z</time>
      </trkpt>
      <trkpt lat="49.63425" lon="4.97897">
        <ele>178.94</ele>
        <time>2018-08-10T09:59:58Z</time>
      </trkpt>
      <trkpt lat="49.63407" lon="4.97911">
        <ele>177.02</ele>
        <time>2018-08-10T10:00:15Z</time>
      </trkpt>
      <trkpt lat="49.63403" lon="4.97915">
        <ele>176.54</ele>
        <time>2018-08-10T10:00:18Z</time>
      </trkpt>
      <trkpt lat="49.634" lon="4.9792">
        <ele>175.1</ele>
        <time>2018-08-10T10:00:23Z</time>
      </trkpt>
      <trkpt lat="49.63385" lon="4.97937">
        <ele>173.66</ele>
        <time>2018-08-10T10:00:39Z</time>
      </trkpt>
      <trkpt lat="49.63385" lon="4.97946">
        <ele>174.62</ele>
        <time>2018-08-10T10:00:45Z</time>
      </trkpt>
      <trkpt lat="49.63392" lon="4.97963">
        <ele>175.58</ele>
        <time>2018-08-10T10:01:01Z</time>
      </trkpt>
      <trkpt lat="49.63403" lon="4.97989">
        <ele>176.06</ele>
        <time>2018-08-10T10:01:20Z</time>
      </trkpt>
      <trkpt lat="49.63412" lon="4.98013">
        <ele>177.02</ele>
        <time>2018-08-10T10:01:31Z</time>
      </trkpt>
      <trkpt lat="49.63429" lon="4.98042">
        <ele>177.98</ele>
        <time>2018-08-10T10:01:48Z</time>
      </trkpt>
      <trkpt lat="49.63443" lon="4.98059">
        <ele>178.46</ele>
        <time>2018-08-10T10:02:04Z</time>
      </trkpt>
      <trkpt lat="49.63446" lon="4.98054">
        <ele>183.27</ele>
        <time>2018-08-10T10:02:15Z</time>
      </trkpt>
      <trkpt lat="49.63453" lon="4.98048">
        <ele>189.04</ele>
        <time>2018-08-10T10:02:34Z</time>
      </trkpt>
      <trkpt lat="49.63454" lon="4.98046">
        <ele>189.52</ele>
        <time>2018-08-10T10:02:37Z</time>
      </trkpt>
    </trkseg>
  </trk>
</gpx>